<?xml version="1.0" encoding="UTF-8"?>
<gpx xmlns="http://www.topografix.com/GPX/1/1" creator="GPSies http://www.gpsies.com - Neuestrecke_course" version="1.1" xmlns:xsi="http://www.w3.org/2001/XMLSchema-instance" xsi:schemaLocation="http://www.topografix.com/GPX/1/1 http://www.topografix.com/GPX/1/1/gpx.xsd">
  <metadata>
    <name>Neuestrecke_course</name>
    <copyright author="GPSies.com" />
    <link href="http://www.gpsies.com/">
      <text>Neuestrecke_course on GPSies.com</text>
    </link>
    <time>2008-08-19T19:36:11Z</time>
  </metadata>
  <trk>
    <name>Neuestrecke_course on GPSies.com</name>
    <trkseg>
      <trkpt lat="51.50508600" lon="6.627747000">
        <ele>21.863000</ele>
        <time>2008-08-16T12:40:59Z</time>
      </trkpt>
      <trkpt lat="51.50516200" lon="6.628038000">
        <ele>20.014000</ele>
        <time>2008-08-16T12:41:04Z</time>
      </trkpt>
      <trkpt lat="51.50534100" lon="6.628597000">
        <ele>20.234000</ele>
        <time>2008-08-16T12:41:14Z</time>
      </trkpt>
      <trkpt lat="51.50551800" lon="6.629116000">
        <ele>19.621000</ele>
        <time>2008-08-16T12:41:24Z</time>
      </trkpt>
      <trkpt lat="51.50569600" lon="6.629641000">
        <ele>19.766000</ele>
        <time>2008-08-16T12:41:33Z</time>
      </trkpt>
      <trkpt lat="51.50586700" lon="6.630206000">
        <ele>19.197000</ele>
        <time>2008-08-16T12:41:42Z</time>
      </trkpt>
      <trkpt lat="51.50594700" lon="6.630537000">
        <ele>18.907000</ele>
        <time>2008-08-16T12:41:47Z</time>
      </trkpt>
      <trkpt lat="51.50598700" lon="6.630739000">
        <ele>18.830000</ele>
        <time>2008-08-16T12:41:50Z</time>
      </trkpt>
      <trkpt lat="51.50614900" lon="6.631407000">
        <ele>18.669000</ele>
        <time>2008-08-16T12:42:00Z</time>
      </trkpt>
      <trkpt lat="51.50623500" lon="6.631989000">
        <ele>18.696000</ele>
        <time>2008-08-16T12:42:08Z</time>
      </trkpt>
      <trkpt lat="51.50631300" lon="6.632577000">
        <ele>18.415000</ele>
        <time>2008-08-16T12:42:16Z</time>
      </trkpt>
      <trkpt lat="51.50643300" lon="6.633160000">
        <ele>18.273000</ele>
        <time>2008-08-16T12:42:24Z</time>
      </trkpt>
      <trkpt lat="51.50657500" lon="6.633743000">
        <ele>18.095000</ele>
        <time>2008-08-16T12:42:32Z</time>
      </trkpt>
      <trkpt lat="51.50675600" lon="6.634284000">
        <ele>18.028000</ele>
        <time>2008-08-16T12:42:40Z</time>
      </trkpt>
      <trkpt lat="51.50697000" lon="6.634799000">
        <ele>17.982000</ele>
        <time>2008-08-16T12:42:48Z</time>
      </trkpt>
      <trkpt lat="51.50717200" lon="6.635292000">
        <ele>18.253000</ele>
        <time>2008-08-16T12:42:56Z</time>
      </trkpt>
      <trkpt lat="51.50737500" lon="6.635827000">
        <ele>18.388000</ele>
        <time>2008-08-16T12:43:05Z</time>
      </trkpt>
      <trkpt lat="51.50756700" lon="6.636364000">
        <ele>18.818000</ele>
        <time>2008-08-16T12:43:14Z</time>
      </trkpt>
      <trkpt lat="51.50773000" lon="6.636901000">
        <ele>19.201000</ele>
        <time>2008-08-16T12:43:23Z</time>
      </trkpt>
      <trkpt lat="51.50784700" lon="6.637445000">
        <ele>19.479000</ele>
        <time>2008-08-16T12:43:32Z</time>
      </trkpt>
      <trkpt lat="51.50793600" lon="6.637994000">
        <ele>20.415000</ele>
        <time>2008-08-16T12:43:41Z</time>
      </trkpt>
      <trkpt lat="51.50797800" lon="6.638580000">
        <ele>20.445000</ele>
        <time>2008-08-16T12:43:50Z</time>
      </trkpt>
      <trkpt lat="51.50800900" lon="6.639192000">
        <ele>20.327000</ele>
        <time>2008-08-16T12:43:59Z</time>
      </trkpt>
      <trkpt lat="51.50799800" lon="6.639798000">
        <ele>20.613000</ele>
        <time>2008-08-16T12:44:08Z</time>
      </trkpt>
      <trkpt lat="51.50802100" lon="6.640386000">
        <ele>21.026000</ele>
        <time>2008-08-16T12:44:17Z</time>
      </trkpt>
      <trkpt lat="51.50805700" lon="6.640982000">
        <ele>21.291000</ele>
        <time>2008-08-16T12:44:26Z</time>
      </trkpt>
      <trkpt lat="51.50812200" lon="6.641576000">
        <ele>21.129000</ele>
        <time>2008-08-16T12:44:35Z</time>
      </trkpt>
      <trkpt lat="51.50821500" lon="6.642165000">
        <ele>21.261000</ele>
        <time>2008-08-16T12:44:44Z</time>
      </trkpt>
      <trkpt lat="51.50832700" lon="6.642756000">
        <ele>21.214000</ele>
        <time>2008-08-16T12:44:53Z</time>
      </trkpt>
      <trkpt lat="51.50843900" lon="6.643355000">
        <ele>21.472000</ele>
        <time>2008-08-16T12:45:02Z</time>
      </trkpt>
      <trkpt lat="51.50855000" lon="6.643955000">
        <ele>21.560000</ele>
        <time>2008-08-16T12:45:11Z</time>
      </trkpt>
      <trkpt lat="51.50866400" lon="6.644553000">
        <ele>21.722000</ele>
        <time>2008-08-16T12:45:20Z</time>
      </trkpt>
      <trkpt lat="51.50877100" lon="6.645077000">
        <ele>21.726000</ele>
        <time>2008-08-16T12:45:28Z</time>
      </trkpt>
      <trkpt lat="51.50889000" lon="6.645747000">
        <ele>21.569000</ele>
        <time>2008-08-16T12:45:38Z</time>
      </trkpt>
      <trkpt lat="51.50900200" lon="6.646378000">
        <ele>21.673000</ele>
        <time>2008-08-16T12:45:47Z</time>
      </trkpt>
      <trkpt lat="51.50909800" lon="6.646948000">
        <ele>21.314000</ele>
        <time>2008-08-16T12:45:55Z</time>
      </trkpt>
      <trkpt lat="51.50919000" lon="6.647523000">
        <ele>21.392000</ele>
        <time>2008-08-16T12:46:03Z</time>
      </trkpt>
      <trkpt lat="51.50927800" lon="6.648126000">
        <ele>20.972000</ele>
        <time>2008-08-16T12:46:11Z</time>
      </trkpt>
      <trkpt lat="51.50936200" lon="6.648719000">
        <ele>20.653000</ele>
        <time>2008-08-16T12:46:19Z</time>
      </trkpt>
      <trkpt lat="51.50942000" lon="6.649150000">
        <ele>20.236000</ele>
        <time>2008-08-16T12:46:25Z</time>
      </trkpt>
      <trkpt lat="51.50947000" lon="6.649604000">
        <ele>20.035000</ele>
        <time>2008-08-16T12:46:31Z</time>
      </trkpt>
      <trkpt lat="51.50952700" lon="6.650292000">
        <ele>19.925000</ele>
        <time>2008-08-16T12:46:40Z</time>
      </trkpt>
      <trkpt lat="51.50956900" lon="6.650673000">
        <ele>19.611000</ele>
        <time>2008-08-16T12:46:45Z</time>
      </trkpt>
      <trkpt lat="51.50962800" lon="6.651273000">
        <ele>19.474000</ele>
        <time>2008-08-16T12:46:53Z</time>
      </trkpt>
      <trkpt lat="51.50970700" lon="6.651920000">
        <ele>19.314000</ele>
        <time>2008-08-16T12:47:02Z</time>
      </trkpt>
      <trkpt lat="51.50975100" lon="6.652504000">
        <ele>19.225000</ele>
        <time>2008-08-16T12:47:10Z</time>
      </trkpt>
      <trkpt lat="51.50975700" lon="6.652722000">
        <ele>19.191000</ele>
        <time>2008-08-16T12:47:13Z</time>
      </trkpt>
      <trkpt lat="51.50977000" lon="6.653375000">
        <ele>19.091000</ele>
        <time>2008-08-16T12:47:22Z</time>
      </trkpt>
      <trkpt lat="51.50975300" lon="6.653986000">
        <ele>19.170000</ele>
        <time>2008-08-16T12:47:30Z</time>
      </trkpt>
      <trkpt lat="51.50974300" lon="6.654596000">
        <ele>19.019000</ele>
        <time>2008-08-16T12:47:38Z</time>
      </trkpt>
      <trkpt lat="51.50976300" lon="6.655202000">
        <ele>19.238000</ele>
        <time>2008-08-16T12:47:46Z</time>
      </trkpt>
      <trkpt lat="51.50980300" lon="6.655652000">
        <ele>18.812000</ele>
        <time>2008-08-16T12:47:52Z</time>
      </trkpt>
      <trkpt lat="51.50990300" lon="6.656297000">
        <ele>18.922000</ele>
        <time>2008-08-16T12:48:01Z</time>
      </trkpt>
      <trkpt lat="51.50994500" lon="6.656510000">
        <ele>18.745000</ele>
        <time>2008-08-16T12:48:04Z</time>
      </trkpt>
      <trkpt lat="51.51007900" lon="6.657175000">
        <ele>18.948000</ele>
        <time>2008-08-16T12:48:14Z</time>
      </trkpt>
      <trkpt lat="51.51023100" lon="6.657758000">
        <ele>19.224000</ele>
        <time>2008-08-16T12:48:23Z</time>
      </trkpt>
      <trkpt lat="51.51032500" lon="6.658062000">
        <ele>19.223000</ele>
        <time>2008-08-16T12:48:28Z</time>
      </trkpt>
      <trkpt lat="51.51053000" lon="6.658689000">
        <ele>19.484000</ele>
        <time>2008-08-16T12:48:38Z</time>
      </trkpt>
      <trkpt lat="51.51072100" lon="6.659242000">
        <ele>19.678000</ele>
        <time>2008-08-16T12:48:47Z</time>
      </trkpt>
      <trkpt lat="51.51093200" lon="6.659782000">
        <ele>19.843000</ele>
        <time>2008-08-16T12:48:56Z</time>
      </trkpt>
      <trkpt lat="51.51115900" lon="6.660271000">
        <ele>20.281000</ele>
        <time>2008-08-16T12:49:05Z</time>
      </trkpt>
      <trkpt lat="51.51139300" lon="6.660757000">
        <ele>20.207000</ele>
        <time>2008-08-16T12:49:14Z</time>
      </trkpt>
      <trkpt lat="51.51163800" lon="6.661241000">
        <ele>20.407000</ele>
        <time>2008-08-16T12:49:23Z</time>
      </trkpt>
      <trkpt lat="51.51185700" lon="6.661674000">
        <ele>19.710000</ele>
        <time>2008-08-16T12:49:31Z</time>
      </trkpt>
      <trkpt lat="51.51212900" lon="6.662207000">
        <ele>19.952000</ele>
        <time>2008-08-16T12:49:41Z</time>
      </trkpt>
      <trkpt lat="51.51235200" lon="6.662694000">
        <ele>19.917000</ele>
        <time>2008-08-16T12:49:50Z</time>
      </trkpt>
      <trkpt lat="51.51257600" lon="6.663171000">
        <ele>20.279000</ele>
        <time>2008-08-16T12:49:59Z</time>
      </trkpt>
      <trkpt lat="51.51278900" lon="6.663651000">
        <ele>20.115000</ele>
        <time>2008-08-16T12:50:08Z</time>
      </trkpt>
      <trkpt lat="51.51298100" lon="6.664141000">
        <ele>19.839000</ele>
        <time>2008-08-16T12:50:17Z</time>
      </trkpt>
      <trkpt lat="51.51322400" lon="6.664580000">
        <ele>19.831000</ele>
        <time>2008-08-16T12:50:26Z</time>
      </trkpt>
      <trkpt lat="51.51344400" lon="6.665011000">
        <ele>20.440000</ele>
        <time>2008-08-16T12:50:37Z</time>
      </trkpt>
      <trkpt lat="51.51358000" lon="6.665285000">
        <ele>20.853000</ele>
        <time>2008-08-16T12:50:52Z</time>
      </trkpt>
      <trkpt lat="51.51360800" lon="6.665157000">
        <ele>20.774000</ele>
        <time>2008-08-16T12:50:58Z</time>
      </trkpt>
      <trkpt lat="51.51349000" lon="6.664823000">
        <ele>20.365000</ele>
        <time>2008-08-16T12:51:07Z</time>
      </trkpt>
      <trkpt lat="51.51355200" lon="6.664721000">
        <ele>20.440000</ele>
        <time>2008-08-16T12:51:22Z</time>
      </trkpt>
      <trkpt lat="51.51354400" lon="6.664699000">
        <ele>20.409000</ele>
        <time>2008-08-16T12:51:40Z</time>
      </trkpt>
      <trkpt lat="51.51354400" lon="6.664701000">
        <ele>20.614000</ele>
        <time>2008-08-16T12:51:49Z</time>
      </trkpt>
      <trkpt lat="51.51353500" lon="6.664695000">
        <ele>20.362000</ele>
        <time>2008-08-16T12:52:18Z</time>
      </trkpt>
      <trkpt lat="51.51352800" lon="6.664696000">
        <ele>20.393000</ele>
        <time>2008-08-16T12:52:28Z</time>
      </trkpt>
      <trkpt lat="51.51353500" lon="6.664712000">
        <ele>20.963000</ele>
        <time>2008-08-16T12:56:10Z</time>
      </trkpt>
      <trkpt lat="51.51350200" lon="6.664745000">
        <ele>20.958000</ele>
        <time>2008-08-16T12:56:19Z</time>
      </trkpt>
      <trkpt lat="51.51348600" lon="6.664769000">
        <ele>20.639000</ele>
        <time>2008-08-16T12:56:21Z</time>
      </trkpt>
      <trkpt lat="51.51347400" lon="6.664783000">
        <ele>20.816000</ele>
        <time>2008-08-16T12:56:22Z</time>
      </trkpt>
      <trkpt lat="51.51349600" lon="6.665005000">
        <ele>21.278000</ele>
        <time>2008-08-16T12:56:30Z</time>
      </trkpt>
      <trkpt lat="51.51371200" lon="6.665511000">
        <ele>21.852000</ele>
        <time>2008-08-16T12:56:51Z</time>
      </trkpt>
      <trkpt lat="51.51392500" lon="6.665988000">
        <ele>22.770000</ele>
        <time>2008-08-16T12:57:08Z</time>
      </trkpt>
      <trkpt lat="51.51416300" lon="6.666471000">
        <ele>23.601000</ele>
        <time>2008-08-16T12:57:24Z</time>
      </trkpt>
      <trkpt lat="51.51440700" lon="6.666914000">
        <ele>24.279000</ele>
        <time>2008-08-16T12:57:39Z</time>
      </trkpt>
      <trkpt lat="51.51467500" lon="6.667318000">
        <ele>24.331000</ele>
        <time>2008-08-16T12:57:53Z</time>
      </trkpt>
      <trkpt lat="51.51496100" lon="6.667746000">
        <ele>24.478000</ele>
        <time>2008-08-16T12:58:06Z</time>
      </trkpt>
      <trkpt lat="51.51525000" lon="6.668157000">
        <ele>24.196000</ele>
        <time>2008-08-16T12:58:17Z</time>
      </trkpt>
      <trkpt lat="51.51553900" lon="6.668564000">
        <ele>24.218000</ele>
        <time>2008-08-16T12:58:27Z</time>
      </trkpt>
      <trkpt lat="51.51583100" lon="6.668931000">
        <ele>23.886000</ele>
        <time>2008-08-16T12:58:37Z</time>
      </trkpt>
      <trkpt lat="51.51610000" lon="6.669348000">
        <ele>23.673000</ele>
        <time>2008-08-16T12:58:47Z</time>
      </trkpt>
      <trkpt lat="51.51612700" lon="6.669394000">
        <ele>23.804000</ele>
        <time>2008-08-16T12:58:48Z</time>
      </trkpt>
      <trkpt lat="51.51642500" lon="6.669839000">
        <ele>23.376000</ele>
        <time>2008-08-16T12:58:59Z</time>
      </trkpt>
      <trkpt lat="51.51670300" lon="6.670247000">
        <ele>23.058000</ele>
        <time>2008-08-16T12:59:09Z</time>
      </trkpt>
      <trkpt lat="51.51696200" lon="6.670686000">
        <ele>22.758000</ele>
        <time>2008-08-16T12:59:19Z</time>
      </trkpt>
      <trkpt lat="51.51724600" lon="6.671125000">
        <ele>22.430000</ele>
        <time>2008-08-16T12:59:29Z</time>
      </trkpt>
      <trkpt lat="51.51755900" lon="6.671518000">
        <ele>21.632000</ele>
        <time>2008-08-16T12:59:39Z</time>
      </trkpt>
      <trkpt lat="51.51783400" lon="6.671981000">
        <ele>20.701000</ele>
        <time>2008-08-16T12:59:48Z</time>
      </trkpt>
      <trkpt lat="51.51801500" lon="6.672349000">
        <ele>19.919000</ele>
        <time>2008-08-16T12:59:54Z</time>
      </trkpt>
      <trkpt lat="51.51832100" lon="6.672852000">
        <ele>18.610000</ele>
        <time>2008-08-16T13:00:02Z</time>
      </trkpt>
      <trkpt lat="51.51855300" lon="6.673348000">
        <ele>18.282000</ele>
        <time>2008-08-16T13:00:09Z</time>
      </trkpt>
      <trkpt lat="51.51878100" lon="6.673835000">
        <ele>17.679000</ele>
        <time>2008-08-16T13:00:17Z</time>
      </trkpt>
      <trkpt lat="51.51901200" lon="6.674352000">
        <ele>17.570000</ele>
        <time>2008-08-16T13:00:26Z</time>
      </trkpt>
      <trkpt lat="51.51922100" lon="6.674869000">
        <ele>17.747000</ele>
        <time>2008-08-16T13:00:35Z</time>
      </trkpt>
      <trkpt lat="51.51942200" lon="6.675387000">
        <ele>17.927000</ele>
        <time>2008-08-16T13:00:44Z</time>
      </trkpt>
      <trkpt lat="51.51960700" lon="6.675905000">
        <ele>18.389000</ele>
        <time>2008-08-16T13:00:53Z</time>
      </trkpt>
      <trkpt lat="51.51979300" lon="6.676470000">
        <ele>18.642000</ele>
        <time>2008-08-16T13:01:03Z</time>
      </trkpt>
      <trkpt lat="51.51996100" lon="6.676993000">
        <ele>19.293000</ele>
        <time>2008-08-16T13:01:13Z</time>
      </trkpt>
      <trkpt lat="51.52014600" lon="6.677537000">
        <ele>19.975000</ele>
        <time>2008-08-16T13:01:24Z</time>
      </trkpt>
      <trkpt lat="51.52032200" lon="6.678098000">
        <ele>20.992000</ele>
        <time>2008-08-16T13:01:36Z</time>
      </trkpt>
      <trkpt lat="51.52049700" lon="6.678656000">
        <ele>21.188000</ele>
        <time>2008-08-16T13:01:47Z</time>
      </trkpt>
      <trkpt lat="51.52066000" lon="6.679190000">
        <ele>21.457000</ele>
        <time>2008-08-16T13:01:57Z</time>
      </trkpt>
      <trkpt lat="51.52082700" lon="6.679739000">
        <ele>21.262000</ele>
        <time>2008-08-16T13:02:07Z</time>
      </trkpt>
      <trkpt lat="51.52100700" lon="6.680286000">
        <ele>21.746000</ele>
        <time>2008-08-16T13:02:17Z</time>
      </trkpt>
      <trkpt lat="51.52118800" lon="6.680797000">
        <ele>21.776000</ele>
        <time>2008-08-16T13:02:27Z</time>
      </trkpt>
      <trkpt lat="51.52150800" lon="6.681045000">
        <ele>21.377000</ele>
        <time>2008-08-16T13:02:36Z</time>
      </trkpt>
      <trkpt lat="51.52191200" lon="6.681015000">
        <ele>20.628000</ele>
        <time>2008-08-16T13:02:46Z</time>
      </trkpt>
      <trkpt lat="51.52228400" lon="6.680892000">
        <ele>20.323000</ele>
        <time>2008-08-16T13:02:55Z</time>
      </trkpt>
      <trkpt lat="51.52264300" lon="6.680773000">
        <ele>20.200000</ele>
        <time>2008-08-16T13:03:04Z</time>
      </trkpt>
      <trkpt lat="51.52275400" lon="6.680749000">
        <ele>20.014000</ele>
        <time>2008-08-16T13:03:07Z</time>
      </trkpt>
      <trkpt lat="51.52299100" lon="6.681263000">
        <ele>20.030000</ele>
        <time>2008-08-16T13:03:18Z</time>
      </trkpt>
      <trkpt lat="51.52300900" lon="6.681889000">
        <ele>20.601000</ele>
        <time>2008-08-16T13:03:29Z</time>
      </trkpt>
      <trkpt lat="51.52284900" lon="6.682387000">
        <ele>20.806000</ele>
        <time>2008-08-16T13:03:40Z</time>
      </trkpt>
      <trkpt lat="51.52269800" lon="6.682917000">
        <ele>21.539000</ele>
        <time>2008-08-16T13:03:52Z</time>
      </trkpt>
      <trkpt lat="51.52250000" lon="6.683344000">
        <ele>22.075000</ele>
        <time>2008-08-16T13:04:04Z</time>
      </trkpt>
      <trkpt lat="51.52240500" lon="6.683931000">
        <ele>22.513000</ele>
        <time>2008-08-16T13:04:16Z</time>
      </trkpt>
      <trkpt lat="51.52248200" lon="6.684540000">
        <ele>22.385000</ele>
        <time>2008-08-16T13:04:27Z</time>
      </trkpt>
      <trkpt lat="51.52257600" lon="6.685119000">
        <ele>22.698000</ele>
        <time>2008-08-16T13:04:39Z</time>
      </trkpt>
      <trkpt lat="51.52273400" lon="6.685702000">
        <ele>22.178000</ele>
        <time>2008-08-16T13:04:51Z</time>
      </trkpt>
      <trkpt lat="51.52286700" lon="6.686291000">
        <ele>22.142000</ele>
        <time>2008-08-16T13:05:03Z</time>
      </trkpt>
      <trkpt lat="51.52303100" lon="6.686818000">
        <ele>22.492000</ele>
        <time>2008-08-16T13:05:15Z</time>
      </trkpt>
      <trkpt lat="51.52324200" lon="6.687318000">
        <ele>22.090000</ele>
        <time>2008-08-16T13:05:27Z</time>
      </trkpt>
      <trkpt lat="51.52346000" lon="6.687823000">
        <ele>22.177000</ele>
        <time>2008-08-16T13:05:40Z</time>
      </trkpt>
      <trkpt lat="51.52363200" lon="6.688358000">
        <ele>22.253000</ele>
        <time>2008-08-16T13:05:52Z</time>
      </trkpt>
      <trkpt lat="51.52376400" lon="6.688903000">
        <ele>22.281000</ele>
        <time>2008-08-16T13:06:03Z</time>
      </trkpt>
      <trkpt lat="51.52395200" lon="6.689423000">
        <ele>21.856000</ele>
        <time>2008-08-16T13:06:14Z</time>
      </trkpt>
      <trkpt lat="51.52417300" lon="6.689919000">
        <ele>22.137000</ele>
        <time>2008-08-16T13:06:27Z</time>
      </trkpt>
      <trkpt lat="51.52439300" lon="6.690395000">
        <ele>21.700000</ele>
        <time>2008-08-16T13:06:42Z</time>
      </trkpt>
      <trkpt lat="51.52442200" lon="6.690454000">
        <ele>21.339000</ele>
        <time>2008-08-16T13:06:44Z</time>
      </trkpt>
      <trkpt lat="51.52433200" lon="6.690689000">
        <ele>20.667000</ele>
        <time>2008-08-16T13:06:49Z</time>
      </trkpt>
      <trkpt lat="51.52408500" lon="6.690945000">
        <ele>19.693000</ele>
        <time>2008-08-16T13:06:56Z</time>
      </trkpt>
      <trkpt lat="51.52390100" lon="6.691607000">
        <ele>19.311000</ele>
        <time>2008-08-16T13:07:06Z</time>
      </trkpt>
      <trkpt lat="51.52378100" lon="6.692164000">
        <ele>19.160000</ele>
        <time>2008-08-16T13:07:15Z</time>
      </trkpt>
      <trkpt lat="51.52366600" lon="6.692731000">
        <ele>19.124000</ele>
        <time>2008-08-16T13:07:24Z</time>
      </trkpt>
      <trkpt lat="51.52354600" lon="6.693282000">
        <ele>19.145000</ele>
        <time>2008-08-16T13:07:33Z</time>
      </trkpt>
      <trkpt lat="51.52339900" lon="6.693813000">
        <ele>19.231000</ele>
        <time>2008-08-16T13:07:42Z</time>
      </trkpt>
      <trkpt lat="51.52322400" lon="6.694340000">
        <ele>19.428000</ele>
        <time>2008-08-16T13:07:51Z</time>
      </trkpt>
      <trkpt lat="51.52304700" lon="6.694866000">
        <ele>19.655000</ele>
        <time>2008-08-16T13:08:00Z</time>
      </trkpt>
      <trkpt lat="51.52286900" lon="6.695411000">
        <ele>19.247000</ele>
        <time>2008-08-16T13:08:09Z</time>
      </trkpt>
      <trkpt lat="51.52269300" lon="6.695944000">
        <ele>19.405000</ele>
        <time>2008-08-16T13:08:18Z</time>
      </trkpt>
      <trkpt lat="51.52265500" lon="6.696070000">
        <ele>19.485000</ele>
        <time>2008-08-16T13:08:20Z</time>
      </trkpt>
      <trkpt lat="51.52273200" lon="6.696497000">
        <ele>18.896000</ele>
        <time>2008-08-16T13:08:27Z</time>
      </trkpt>
      <trkpt lat="51.52308100" lon="6.696837000">
        <ele>18.858000</ele>
        <time>2008-08-16T13:08:37Z</time>
      </trkpt>
      <trkpt lat="51.52318000" lon="6.696908000">
        <ele>18.413000</ele>
        <time>2008-08-16T13:08:43Z</time>
      </trkpt>
      <trkpt lat="51.52318300" lon="6.696920000">
        <ele>18.591000</ele>
        <time>2008-08-16T13:08:52Z</time>
      </trkpt>
      <trkpt lat="51.52319600" lon="6.696931000">
        <ele>18.627000</ele>
        <time>2008-08-16T13:08:55Z</time>
      </trkpt>
      <trkpt lat="51.52319900" lon="6.696943000">
        <ele>18.441000</ele>
        <time>2008-08-16T13:09:07Z</time>
      </trkpt>
      <trkpt lat="51.52321300" lon="6.696963000">
        <ele>19.498000</ele>
        <time>2008-08-16T13:23:25Z</time>
      </trkpt>
      <trkpt lat="51.52322900" lon="6.696968000">
        <ele>19.354000</ele>
        <time>2008-08-16T13:23:27Z</time>
      </trkpt>
      <trkpt lat="51.52323700" lon="6.696973000">
        <ele>19.389000</ele>
        <time>2008-08-16T13:23:28Z</time>
      </trkpt>
      <trkpt lat="51.52360400" lon="6.697151000">
        <ele>17.070000</ele>
        <time>2008-08-16T13:24:01Z</time>
      </trkpt>
      <trkpt lat="51.52374500" lon="6.697196000">
        <ele>17.196000</ele>
        <time>2008-08-16T13:24:17Z</time>
      </trkpt>
      <trkpt lat="51.52376400" lon="6.697201000">
        <ele>17.215000</ele>
        <time>2008-08-16T13:24:29Z</time>
      </trkpt>
      <trkpt lat="51.52381000" lon="6.697347000">
        <ele>17.428000</ele>
        <time>2008-08-16T13:25:53Z</time>
      </trkpt>
      <trkpt lat="51.52411400" lon="6.697688000">
        <ele>17.549000</ele>
        <time>2008-08-16T13:26:26Z</time>
      </trkpt>
      <trkpt lat="51.52445700" lon="6.697904000">
        <ele>17.704000</ele>
        <time>2008-08-16T13:26:52Z</time>
      </trkpt>
      <trkpt lat="51.52480300" lon="6.698082000">
        <ele>17.535000</ele>
        <time>2008-08-16T13:27:18Z</time>
      </trkpt>
      <trkpt lat="51.52515500" lon="6.698278000">
        <ele>17.760000</ele>
        <time>2008-08-16T13:27:47Z</time>
      </trkpt>
      <trkpt lat="51.52549100" lon="6.698481000">
        <ele>17.728000</ele>
        <time>2008-08-16T13:28:17Z</time>
      </trkpt>
      <trkpt lat="51.52582900" lon="6.698693000">
        <ele>17.355000</ele>
        <time>2008-08-16T13:28:48Z</time>
      </trkpt>
      <trkpt lat="51.52613400" lon="6.699008000">
        <ele>17.193000</ele>
        <time>2008-08-16T13:29:24Z</time>
      </trkpt>
      <trkpt lat="51.52629300" lon="6.699527000">
        <ele>16.962000</ele>
        <time>2008-08-16T13:30:05Z</time>
      </trkpt>
      <trkpt lat="51.52629900" lon="6.699746000">
        <ele>17.146000</ele>
        <time>2008-08-16T13:31:00Z</time>
      </trkpt>
      <trkpt lat="51.52629300" lon="6.699795000">
        <ele>17.167000</ele>
        <time>2008-08-16T13:31:03Z</time>
      </trkpt>
      <trkpt lat="51.52633700" lon="6.700022000">
        <ele>18.647000</ele>
        <time>2008-08-16T13:31:15Z</time>
      </trkpt>
      <trkpt lat="51.52635700" lon="6.700079000">
        <ele>18.650000</ele>
        <time>2008-08-16T13:31:20Z</time>
      </trkpt>
      <trkpt lat="51.52670100" lon="6.700405000">
        <ele>18.801000</ele>
        <time>2008-08-16T13:31:39Z</time>
      </trkpt>
      <trkpt lat="51.52702500" lon="6.700723000">
        <ele>18.858000</ele>
        <time>2008-08-16T13:31:52Z</time>
      </trkpt>
      <trkpt lat="51.52726100" lon="6.701183000">
        <ele>19.639000</ele>
        <time>2008-08-16T13:32:05Z</time>
      </trkpt>
      <trkpt lat="51.52740500" lon="6.701719000">
        <ele>20.503000</ele>
        <time>2008-08-16T13:32:18Z</time>
      </trkpt>
      <trkpt lat="51.52739100" lon="6.702298000">
        <ele>21.859000</ele>
        <time>2008-08-16T13:32:31Z</time>
      </trkpt>
      <trkpt lat="51.52731700" lon="6.702854000">
        <ele>24.081000</ele>
        <time>2008-08-16T13:32:46Z</time>
      </trkpt>
      <trkpt lat="51.52715900" lon="6.703368000">
        <ele>26.512000</ele>
        <time>2008-08-16T13:33:03Z</time>
      </trkpt>
      <trkpt lat="51.52702400" lon="6.703946000">
        <ele>27.317000</ele>
        <time>2008-08-16T13:33:19Z</time>
      </trkpt>
      <trkpt lat="51.52698500" lon="6.704427000">
        <ele>27.593000</ele>
        <time>2008-08-16T13:33:31Z</time>
      </trkpt>
      <trkpt lat="51.52665200" lon="6.704868000">
        <ele>27.229000</ele>
        <time>2008-08-16T13:33:46Z</time>
      </trkpt>
      <trkpt lat="51.52638900" lon="6.705262000">
        <ele>26.132000</ele>
        <time>2008-08-16T13:33:55Z</time>
      </trkpt>
      <trkpt lat="51.52612200" lon="6.705703000">
        <ele>26.169000</ele>
        <time>2008-08-16T13:34:04Z</time>
      </trkpt>
      <trkpt lat="51.52582800" lon="6.706087000">
        <ele>26.769000</ele>
        <time>2008-08-16T13:34:15Z</time>
      </trkpt>
      <trkpt lat="51.52549800" lon="6.706467000">
        <ele>26.894000</ele>
        <time>2008-08-16T13:34:27Z</time>
      </trkpt>
      <trkpt lat="51.52523700" lon="6.706864000">
        <ele>26.853000</ele>
        <time>2008-08-16T13:34:39Z</time>
      </trkpt>
      <trkpt lat="51.52510800" lon="6.707386000">
        <ele>27.428000</ele>
        <time>2008-08-16T13:34:50Z</time>
      </trkpt>
      <trkpt lat="51.52512000" lon="6.707988000">
        <ele>27.274000</ele>
        <time>2008-08-16T13:35:00Z</time>
      </trkpt>
      <trkpt lat="51.52525700" lon="6.708567000">
        <ele>27.121000</ele>
        <time>2008-08-16T13:35:09Z</time>
      </trkpt>
      <trkpt lat="51.52550400" lon="6.709114000">
        <ele>26.944000</ele>
        <time>2008-08-16T13:35:19Z</time>
      </trkpt>
      <trkpt lat="51.52567000" lon="6.709679000">
        <ele>26.738000</ele>
        <time>2008-08-16T13:35:28Z</time>
      </trkpt>
      <trkpt lat="51.52572700" lon="6.710102000">
        <ele>26.540000</ele>
        <time>2008-08-16T13:35:34Z</time>
      </trkpt>
      <trkpt lat="51.52577700" lon="6.710825000">
        <ele>26.438000</ele>
        <time>2008-08-16T13:35:44Z</time>
      </trkpt>
      <trkpt lat="51.52584100" lon="6.711470000">
        <ele>27.091000</ele>
        <time>2008-08-16T13:35:53Z</time>
      </trkpt>
      <trkpt lat="51.52587900" lon="6.712066000">
        <ele>27.565000</ele>
        <time>2008-08-16T13:36:02Z</time>
      </trkpt>
      <trkpt lat="51.52588500" lon="6.712254000">
        <ele>27.689000</ele>
        <time>2008-08-16T13:36:05Z</time>
      </trkpt>
      <trkpt lat="51.52593200" lon="6.712922000">
        <ele>27.528000</ele>
        <time>2008-08-16T13:36:15Z</time>
      </trkpt>
      <trkpt lat="51.52596300" lon="6.713579000">
        <ele>27.315000</ele>
        <time>2008-08-16T13:36:24Z</time>
      </trkpt>
      <trkpt lat="51.52592700" lon="6.713781000">
        <ele>27.652000</ele>
        <time>2008-08-16T13:36:27Z</time>
      </trkpt>
      <trkpt lat="51.52571600" lon="6.714346000">
        <ele>26.985000</ele>
        <time>2008-08-16T13:36:36Z</time>
      </trkpt>
      <trkpt lat="51.52558300" lon="6.714898000">
        <ele>26.850000</ele>
        <time>2008-08-16T13:36:44Z</time>
      </trkpt>
      <trkpt lat="51.52554500" lon="6.715475000">
        <ele>26.732000</ele>
        <time>2008-08-16T13:36:52Z</time>
      </trkpt>
      <trkpt lat="51.52550100" lon="6.716098000">
        <ele>26.703000</ele>
        <time>2008-08-16T13:37:01Z</time>
      </trkpt>
      <trkpt lat="51.52555400" lon="6.716685000">
        <ele>26.277000</ele>
        <time>2008-08-16T13:37:10Z</time>
      </trkpt>
      <trkpt lat="51.52554400" lon="6.716855000">
        <ele>26.299000</ele>
        <time>2008-08-16T13:37:15Z</time>
      </trkpt>
      <trkpt lat="51.52537900" lon="6.716842000">
        <ele>26.329000</ele>
        <time>2008-08-16T13:37:21Z</time>
      </trkpt>
      <trkpt lat="51.52496000" lon="6.716850000">
        <ele>25.877000</ele>
        <time>2008-08-16T13:37:32Z</time>
      </trkpt>
      <trkpt lat="51.52459800" lon="6.716889000">
        <ele>25.891000</ele>
        <time>2008-08-16T13:37:41Z</time>
      </trkpt>
      <trkpt lat="51.52421500" lon="6.716939000">
        <ele>25.775000</ele>
        <time>2008-08-16T13:37:50Z</time>
      </trkpt>
      <trkpt lat="51.52383000" lon="6.717018000">
        <ele>25.636000</ele>
        <time>2008-08-16T13:37:59Z</time>
      </trkpt>
      <trkpt lat="51.52341700" lon="6.717085000">
        <ele>25.443000</ele>
        <time>2008-08-16T13:38:09Z</time>
      </trkpt>
      <trkpt lat="51.52333600" lon="6.717103000">
        <ele>25.267000</ele>
        <time>2008-08-16T13:38:11Z</time>
      </trkpt>
      <trkpt lat="51.52287500" lon="6.717147000">
        <ele>25.460000</ele>
        <time>2008-08-16T13:38:21Z</time>
      </trkpt>
      <trkpt lat="51.52250400" lon="6.717193000">
        <ele>25.683000</ele>
        <time>2008-08-16T13:38:30Z</time>
      </trkpt>
      <trkpt lat="51.52211800" lon="6.717243000">
        <ele>26.501000</ele>
        <time>2008-08-16T13:38:40Z</time>
      </trkpt>
      <trkpt lat="51.52173500" lon="6.717292000">
        <ele>26.976000</ele>
        <time>2008-08-16T13:38:50Z</time>
      </trkpt>
      <trkpt lat="51.52137100" lon="6.717346000">
        <ele>27.620000</ele>
        <time>2008-08-16T13:38:59Z</time>
      </trkpt>
      <trkpt lat="51.52101900" lon="6.717402000">
        <ele>27.797000</ele>
        <time>2008-08-16T13:39:08Z</time>
      </trkpt>
      <trkpt lat="51.52086100" lon="6.717873000">
        <ele>28.200000</ele>
        <time>2008-08-16T13:39:18Z</time>
      </trkpt>
      <trkpt lat="51.52096000" lon="6.718476000">
        <ele>28.176000</ele>
        <time>2008-08-16T13:39:28Z</time>
      </trkpt>
      <trkpt lat="51.52103600" lon="6.719067000">
        <ele>28.021000</ele>
        <time>2008-08-16T13:39:38Z</time>
      </trkpt>
      <trkpt lat="51.52110100" lon="6.719683000">
        <ele>27.817000</ele>
        <time>2008-08-16T13:39:48Z</time>
      </trkpt>
      <trkpt lat="51.52113800" lon="6.720085000">
        <ele>27.124000</ele>
        <time>2008-08-16T13:39:54Z</time>
      </trkpt>
      <trkpt lat="51.52123900" lon="6.720737000">
        <ele>26.937000</ele>
        <time>2008-08-16T13:40:05Z</time>
      </trkpt>
      <trkpt lat="51.52127600" lon="6.721367000">
        <ele>27.106000</ele>
        <time>2008-08-16T13:40:15Z</time>
      </trkpt>
      <trkpt lat="51.52124400" lon="6.721995000">
        <ele>26.748000</ele>
        <time>2008-08-16T13:40:25Z</time>
      </trkpt>
      <trkpt lat="51.52119100" lon="6.722616000">
        <ele>26.280000</ele>
        <time>2008-08-16T13:40:35Z</time>
      </trkpt>
      <trkpt lat="51.52116000" lon="6.723275000">
        <ele>25.994000</ele>
        <time>2008-08-16T13:40:45Z</time>
      </trkpt>
      <trkpt lat="51.52114000" lon="6.723909000">
        <ele>25.724000</ele>
        <time>2008-08-16T13:40:55Z</time>
      </trkpt>
      <trkpt lat="51.52113500" lon="6.723970000">
        <ele>25.803000</ele>
        <time>2008-08-16T13:40:56Z</time>
      </trkpt>
      <trkpt lat="51.52113600" lon="6.724169000">
        <ele>25.581000</ele>
        <time>2008-08-16T13:40:59Z</time>
      </trkpt>
      <trkpt lat="51.52111400" lon="6.724825000">
        <ele>25.125000</ele>
        <time>2008-08-16T13:41:09Z</time>
      </trkpt>
      <trkpt lat="51.52111500" lon="6.725023000">
        <ele>25.088000</ele>
        <time>2008-08-16T13:41:12Z</time>
      </trkpt>
      <trkpt lat="51.52104100" lon="6.725682000">
        <ele>24.774000</ele>
        <time>2008-08-16T13:41:22Z</time>
      </trkpt>
      <trkpt lat="51.52097700" lon="6.726296000">
        <ele>24.400000</ele>
        <time>2008-08-16T13:41:31Z</time>
      </trkpt>
      <trkpt lat="51.52096100" lon="6.726940000">
        <ele>24.146000</ele>
        <time>2008-08-16T13:41:40Z</time>
      </trkpt>
      <trkpt lat="51.52097100" lon="6.727522000">
        <ele>24.078000</ele>
        <time>2008-08-16T13:41:48Z</time>
      </trkpt>
      <trkpt lat="51.52099200" lon="6.728183000">
        <ele>23.583000</ele>
        <time>2008-08-16T13:41:57Z</time>
      </trkpt>
      <trkpt lat="51.52099700" lon="6.728760000">
        <ele>23.274000</ele>
        <time>2008-08-16T13:42:05Z</time>
      </trkpt>
      <trkpt lat="51.52102800" lon="6.729351000">
        <ele>23.699000</ele>
        <time>2008-08-16T13:42:15Z</time>
      </trkpt>
      <trkpt lat="51.52085100" lon="6.729859000">
        <ele>24.020000</ele>
        <time>2008-08-16T13:42:26Z</time>
      </trkpt>
      <trkpt lat="51.52068300" lon="6.730382000">
        <ele>24.476000</ele>
        <time>2008-08-16T13:42:37Z</time>
      </trkpt>
      <trkpt lat="51.52049100" lon="6.730925000">
        <ele>24.887000</ele>
        <time>2008-08-16T13:42:48Z</time>
      </trkpt>
      <trkpt lat="51.52032900" lon="6.731411000">
        <ele>24.676000</ele>
        <time>2008-08-16T13:42:57Z</time>
      </trkpt>
      <trkpt lat="51.52013200" lon="6.731967000">
        <ele>23.921000</ele>
        <time>2008-08-16T13:43:07Z</time>
      </trkpt>
      <trkpt lat="51.51993400" lon="6.732509000">
        <ele>23.384000</ele>
        <time>2008-08-16T13:43:17Z</time>
      </trkpt>
      <trkpt lat="51.51979500" lon="6.732835000">
        <ele>23.063000</ele>
        <time>2008-08-16T13:43:24Z</time>
      </trkpt>
      <trkpt lat="51.51968500" lon="6.732809000">
        <ele>23.112000</ele>
        <time>2008-08-16T13:43:29Z</time>
      </trkpt>
      <trkpt lat="51.51959300" lon="6.732717000">
        <ele>23.699000</ele>
        <time>2008-08-16T13:43:35Z</time>
      </trkpt>
      <trkpt lat="51.51963000" lon="6.732800000">
        <ele>23.231000</ele>
        <time>2008-08-16T13:43:43Z</time>
      </trkpt>
      <trkpt lat="51.51970700" lon="6.732892000">
        <ele>22.893000</ele>
        <time>2008-08-16T13:43:46Z</time>
      </trkpt>
      <trkpt lat="51.51955300" lon="6.733454000">
        <ele>22.947000</ele>
        <time>2008-08-16T13:43:59Z</time>
      </trkpt>
      <trkpt lat="51.51933400" lon="6.733936000">
        <ele>22.906000</ele>
        <time>2008-08-16T13:44:11Z</time>
      </trkpt>
      <trkpt lat="51.51898100" lon="6.734109000">
        <ele>23.358000</ele>
        <time>2008-08-16T13:44:25Z</time>
      </trkpt>
      <trkpt lat="51.51866000" lon="6.734266000">
        <ele>23.688000</ele>
        <time>2008-08-16T13:44:38Z</time>
      </trkpt>
      <trkpt lat="51.51827700" lon="6.734428000">
        <ele>23.739000</ele>
        <time>2008-08-16T13:44:50Z</time>
      </trkpt>
      <trkpt lat="51.51791100" lon="6.734605000">
        <ele>24.044000</ele>
        <time>2008-08-16T13:45:02Z</time>
      </trkpt>
      <trkpt lat="51.51754600" lon="6.734719000">
        <ele>24.492000</ele>
        <time>2008-08-16T13:45:14Z</time>
      </trkpt>
      <trkpt lat="51.51734700" lon="6.734180000">
        <ele>25.193000</ele>
        <time>2008-08-16T13:45:28Z</time>
      </trkpt>
      <trkpt lat="51.51729700" lon="6.733571000">
        <ele>25.606000</ele>
        <time>2008-08-16T13:45:42Z</time>
      </trkpt>
      <trkpt lat="51.51724300" lon="6.732985000">
        <ele>26.173000</ele>
        <time>2008-08-16T13:45:55Z</time>
      </trkpt>
      <trkpt lat="51.51717100" lon="6.732394000">
        <ele>26.347000</ele>
        <time>2008-08-16T13:46:08Z</time>
      </trkpt>
      <trkpt lat="51.51707900" lon="6.731825000">
        <ele>26.431000</ele>
        <time>2008-08-16T13:46:20Z</time>
      </trkpt>
      <trkpt lat="51.51695500" lon="6.731228000">
        <ele>26.330000</ele>
        <time>2008-08-16T13:46:32Z</time>
      </trkpt>
      <trkpt lat="51.51695800" lon="6.731086000">
        <ele>26.512000</ele>
        <time>2008-08-16T13:46:35Z</time>
      </trkpt>
      <trkpt lat="51.51705100" lon="6.730992000">
        <ele>27.012000</ele>
        <time>2008-08-16T13:46:39Z</time>
      </trkpt>
      <trkpt lat="51.51734400" lon="6.730877000">
        <ele>27.839000</ele>
        <time>2008-08-16T13:46:50Z</time>
      </trkpt>
      <trkpt lat="51.51746700" lon="6.731078000">
        <ele>27.895000</ele>
        <time>2008-08-16T13:46:57Z</time>
      </trkpt>
      <trkpt lat="51.51779000" lon="6.731509000">
        <ele>27.997000</ele>
        <time>2008-08-16T13:47:10Z</time>
      </trkpt>
      <trkpt lat="51.51812900" lon="6.731838000">
        <ele>27.896000</ele>
        <time>2008-08-16T13:47:22Z</time>
      </trkpt>
      <trkpt lat="51.51847300" lon="6.732105000">
        <ele>27.900000</ele>
        <time>2008-08-16T13:47:33Z</time>
      </trkpt>
      <trkpt lat="51.51878700" lon="6.732355000">
        <ele>27.720000</ele>
        <time>2008-08-16T13:47:43Z</time>
      </trkpt>
      <trkpt lat="51.51909200" lon="6.732625000">
        <ele>27.783000</ele>
        <time>2008-08-16T13:47:53Z</time>
      </trkpt>
      <trkpt lat="51.51938900" lon="6.732968000">
        <ele>27.939000</ele>
        <time>2008-08-16T13:48:03Z</time>
      </trkpt>
      <trkpt lat="51.51972600" lon="6.733332000">
        <ele>28.244000</ele>
        <time>2008-08-16T13:48:14Z</time>
      </trkpt>
      <trkpt lat="51.52004700" lon="6.733701000">
        <ele>27.571000</ele>
        <time>2008-08-16T13:48:24Z</time>
      </trkpt>
      <trkpt lat="51.52037200" lon="6.734155000">
        <ele>26.906000</ele>
        <time>2008-08-16T13:48:34Z</time>
      </trkpt>
      <trkpt lat="51.52048800" lon="6.734352000">
        <ele>26.666000</ele>
        <time>2008-08-16T13:48:38Z</time>
      </trkpt>
      <trkpt lat="51.52072700" lon="6.734767000">
        <ele>26.057000</ele>
        <time>2008-08-16T13:48:47Z</time>
      </trkpt>
      <trkpt lat="51.52098800" lon="6.735245000">
        <ele>25.268000</ele>
        <time>2008-08-16T13:48:55Z</time>
      </trkpt>
      <trkpt lat="51.52120800" lon="6.735726000">
        <ele>24.088000</ele>
        <time>2008-08-16T13:49:02Z</time>
      </trkpt>
      <trkpt lat="51.52135500" lon="6.736255000">
        <ele>23.883000</ele>
        <time>2008-08-16T13:49:09Z</time>
      </trkpt>
      <trkpt lat="51.52148600" lon="6.736825000">
        <ele>23.014000</ele>
        <time>2008-08-16T13:49:16Z</time>
      </trkpt>
      <trkpt lat="51.52160800" lon="6.737451000">
        <ele>22.466000</ele>
        <time>2008-08-16T13:49:24Z</time>
      </trkpt>
      <trkpt lat="51.52170000" lon="6.738017000">
        <ele>22.384000</ele>
        <time>2008-08-16T13:49:32Z</time>
      </trkpt>
      <trkpt lat="51.52177300" lon="6.738599000">
        <ele>22.166000</ele>
        <time>2008-08-16T13:49:40Z</time>
      </trkpt>
      <trkpt lat="51.52189200" lon="6.739252000">
        <ele>22.226000</ele>
        <time>2008-08-16T13:49:49Z</time>
      </trkpt>
      <trkpt lat="51.52199300" lon="6.739875000">
        <ele>22.062000</ele>
        <time>2008-08-16T13:49:58Z</time>
      </trkpt>
      <trkpt lat="51.52207600" lon="6.740495000">
        <ele>22.070000</ele>
        <time>2008-08-16T13:50:07Z</time>
      </trkpt>
      <trkpt lat="51.52216200" lon="6.741111000">
        <ele>22.381000</ele>
        <time>2008-08-16T13:50:16Z</time>
      </trkpt>
      <trkpt lat="51.52225200" lon="6.741724000">
        <ele>22.184000</ele>
        <time>2008-08-16T13:50:25Z</time>
      </trkpt>
      <trkpt lat="51.52233500" lon="6.742313000">
        <ele>22.344000</ele>
        <time>2008-08-16T13:50:34Z</time>
      </trkpt>
      <trkpt lat="51.52244200" lon="6.742878000">
        <ele>22.320000</ele>
        <time>2008-08-16T13:50:43Z</time>
      </trkpt>
      <trkpt lat="51.52255400" lon="6.743468000">
        <ele>22.054000</ele>
        <time>2008-08-16T13:50:53Z</time>
      </trkpt>
      <trkpt lat="51.52270700" lon="6.744392000">
        <ele>22.229000</ele>
        <time>2008-08-16T13:51:08Z</time>
      </trkpt>
      <trkpt lat="51.52278200" lon="6.745842000">
        <ele>22.232000</ele>
        <time>2008-08-16T13:51:31Z</time>
      </trkpt>
      <trkpt lat="51.52267000" lon="6.747237000">
        <ele>22.406000</ele>
        <time>2008-08-16T13:51:54Z</time>
      </trkpt>
      <trkpt lat="51.52259200" lon="6.747814000">
        <ele>22.965000</ele>
        <time>2008-08-16T13:52:04Z</time>
      </trkpt>
      <trkpt lat="51.52253200" lon="6.748378000">
        <ele>23.385000</ele>
        <time>2008-08-16T13:52:14Z</time>
      </trkpt>
      <trkpt lat="51.52248900" lon="6.748969000">
        <ele>23.711000</ele>
        <time>2008-08-16T13:52:25Z</time>
      </trkpt>
      <trkpt lat="51.52246100" lon="6.749564000">
        <ele>24.491000</ele>
        <time>2008-08-16T13:52:36Z</time>
      </trkpt>
      <trkpt lat="51.52246000" lon="6.750155000">
        <ele>25.223000</ele>
        <time>2008-08-16T13:52:47Z</time>
      </trkpt>
      <trkpt lat="51.52247800" lon="6.750740000">
        <ele>25.433000</ele>
        <time>2008-08-16T13:52:58Z</time>
      </trkpt>
      <trkpt lat="51.52250800" lon="6.751370000">
        <ele>25.571000</ele>
        <time>2008-08-16T13:53:10Z</time>
      </trkpt>
      <trkpt lat="51.52254200" lon="6.751991000">
        <ele>26.056000</ele>
        <time>2008-08-16T13:53:22Z</time>
      </trkpt>
      <trkpt lat="51.52257600" lon="6.752616000">
        <ele>26.101000</ele>
        <time>2008-08-16T13:53:34Z</time>
      </trkpt>
      <trkpt lat="51.52259300" lon="6.753199000">
        <ele>26.385000</ele>
        <time>2008-08-16T13:53:45Z</time>
      </trkpt>
      <trkpt lat="51.52262600" lon="6.753798000">
        <ele>26.897000</ele>
        <time>2008-08-16T13:53:56Z</time>
      </trkpt>
      <trkpt lat="51.52266900" lon="6.754394000">
        <ele>26.806000</ele>
        <time>2008-08-16T13:54:07Z</time>
      </trkpt>
      <trkpt lat="51.52274300" lon="6.754961000">
        <ele>27.012000</ele>
        <time>2008-08-16T13:54:18Z</time>
      </trkpt>
      <trkpt lat="51.52283100" lon="6.755508000">
        <ele>27.710000</ele>
        <time>2008-08-16T13:54:29Z</time>
      </trkpt>
      <trkpt lat="51.52296400" lon="6.756036000">
        <ele>27.739000</ele>
        <time>2008-08-16T13:54:40Z</time>
      </trkpt>
      <trkpt lat="51.52314100" lon="6.756556000">
        <ele>28.216000</ele>
        <time>2008-08-16T13:54:51Z</time>
      </trkpt>
      <trkpt lat="51.52339200" lon="6.757049000">
        <ele>28.461000</ele>
        <time>2008-08-16T13:55:02Z</time>
      </trkpt>
      <trkpt lat="51.52367400" lon="6.757522000">
        <ele>28.486000</ele>
        <time>2008-08-16T13:55:13Z</time>
      </trkpt>
      <trkpt lat="51.52380900" lon="6.757717000">
        <ele>28.905000</ele>
        <time>2008-08-16T13:55:19Z</time>
      </trkpt>
      <trkpt lat="51.52386500" lon="6.757780000">
        <ele>28.739000</ele>
        <time>2008-08-16T13:55:23Z</time>
      </trkpt>
      <trkpt lat="51.52413500" lon="6.758266000">
        <ele>29.480000</ele>
        <time>2008-08-16T13:55:35Z</time>
      </trkpt>
      <trkpt lat="51.52440600" lon="6.758724000">
        <ele>29.934000</ele>
        <time>2008-08-16T13:55:47Z</time>
      </trkpt>
      <trkpt lat="51.52466000" lon="6.759156000">
        <ele>30.133000</ele>
        <time>2008-08-16T13:55:59Z</time>
      </trkpt>
      <trkpt lat="51.52489100" lon="6.759615000">
        <ele>30.318000</ele>
        <time>2008-08-16T13:56:11Z</time>
      </trkpt>
      <trkpt lat="51.52510200" lon="6.760110000">
        <ele>30.299000</ele>
        <time>2008-08-16T13:56:23Z</time>
      </trkpt>
      <trkpt lat="51.52528000" lon="6.760641000">
        <ele>30.684000</ele>
        <time>2008-08-16T13:56:35Z</time>
      </trkpt>
      <trkpt lat="51.52542200" lon="6.761194000">
        <ele>30.780000</ele>
        <time>2008-08-16T13:56:47Z</time>
      </trkpt>
      <trkpt lat="51.52555400" lon="6.761743000">
        <ele>31.015000</ele>
        <time>2008-08-16T13:56:58Z</time>
      </trkpt>
      <trkpt lat="51.52569100" lon="6.762294000">
        <ele>31.209000</ele>
        <time>2008-08-16T13:57:09Z</time>
      </trkpt>
      <trkpt lat="51.52580300" lon="6.762854000">
        <ele>31.108000</ele>
        <time>2008-08-16T13:57:20Z</time>
      </trkpt>
      <trkpt lat="51.52593000" lon="6.763425000">
        <ele>31.620000</ele>
        <time>2008-08-16T13:57:32Z</time>
      </trkpt>
      <trkpt lat="51.52606800" lon="6.763965000">
        <ele>31.807000</ele>
        <time>2008-08-16T13:57:43Z</time>
      </trkpt>
      <trkpt lat="51.52623400" lon="6.764515000">
        <ele>32.095000</ele>
        <time>2008-08-16T13:57:54Z</time>
      </trkpt>
      <trkpt lat="51.52638600" lon="6.765034000">
        <ele>32.505000</ele>
        <time>2008-08-16T13:58:05Z</time>
      </trkpt>
      <trkpt lat="51.52653600" lon="6.765559000">
        <ele>32.821000</ele>
        <time>2008-08-16T13:58:16Z</time>
      </trkpt>
      <trkpt lat="51.52671000" lon="6.766107000">
        <ele>33.169000</ele>
        <time>2008-08-16T13:58:27Z</time>
      </trkpt>
      <trkpt lat="51.52686500" lon="6.766624000">
        <ele>33.664000</ele>
        <time>2008-08-16T13:58:38Z</time>
      </trkpt>
      <trkpt lat="51.52703100" lon="6.767155000">
        <ele>33.786000</ele>
        <time>2008-08-16T13:58:49Z</time>
      </trkpt>
      <trkpt lat="51.52721000" lon="6.767683000">
        <ele>34.152000</ele>
        <time>2008-08-16T13:59:00Z</time>
      </trkpt>
      <trkpt lat="51.52739300" lon="6.768230000">
        <ele>34.347000</ele>
        <time>2008-08-16T13:59:11Z</time>
      </trkpt>
      <trkpt lat="51.52756000" lon="6.768739000">
        <ele>34.645000</ele>
        <time>2008-08-16T13:59:22Z</time>
      </trkpt>
      <trkpt lat="51.52781400" lon="6.769209000">
        <ele>35.475000</ele>
        <time>2008-08-16T13:59:33Z</time>
      </trkpt>
      <trkpt lat="51.52808800" lon="6.769651000">
        <ele>35.320000</ele>
        <time>2008-08-16T13:59:44Z</time>
      </trkpt>
      <trkpt lat="51.52834900" lon="6.770084000">
        <ele>35.568000</ele>
        <time>2008-08-16T13:59:55Z</time>
      </trkpt>
      <trkpt lat="51.52864300" lon="6.770463000">
        <ele>35.597000</ele>
        <time>2008-08-16T14:00:06Z</time>
      </trkpt>
      <trkpt lat="51.52893100" lon="6.770825000">
        <ele>35.891000</ele>
        <time>2008-08-16T14:00:17Z</time>
      </trkpt>
      <trkpt lat="51.52923600" lon="6.771207000">
        <ele>35.966000</ele>
        <time>2008-08-16T14:00:28Z</time>
      </trkpt>
      <trkpt lat="51.52952700" lon="6.771633000">
        <ele>36.183000</ele>
        <time>2008-08-16T14:00:39Z</time>
      </trkpt>
      <trkpt lat="51.52977200" lon="6.772086000">
        <ele>36.544000</ele>
        <time>2008-08-16T14:00:50Z</time>
      </trkpt>
      <trkpt lat="51.53000700" lon="6.772575000">
        <ele>36.406000</ele>
        <time>2008-08-16T14:01:01Z</time>
      </trkpt>
      <trkpt lat="51.53020900" lon="6.773120000">
        <ele>36.511000</ele>
        <time>2008-08-16T14:01:12Z</time>
      </trkpt>
      <trkpt lat="51.53035100" lon="6.773648000">
        <ele>36.562000</ele>
        <time>2008-08-16T14:01:22Z</time>
      </trkpt>
      <trkpt lat="51.53046200" lon="6.774204000">
        <ele>36.752000</ele>
        <time>2008-08-16T14:01:32Z</time>
      </trkpt>
      <trkpt lat="51.53055300" lon="6.774786000">
        <ele>36.777000</ele>
        <time>2008-08-16T14:01:42Z</time>
      </trkpt>
      <trkpt lat="51.53063200" lon="6.775424000">
        <ele>36.743000</ele>
        <time>2008-08-16T14:01:53Z</time>
      </trkpt>
      <trkpt lat="51.53069700" lon="6.776009000">
        <ele>36.616000</ele>
        <time>2008-08-16T14:02:03Z</time>
      </trkpt>
      <trkpt lat="51.53076300" lon="6.776591000">
        <ele>36.773000</ele>
        <time>2008-08-16T14:02:13Z</time>
      </trkpt>
      <trkpt lat="51.53082500" lon="6.777186000">
        <ele>36.940000</ele>
        <time>2008-08-16T14:02:23Z</time>
      </trkpt>
      <trkpt lat="51.53088700" lon="6.777786000">
        <ele>36.831000</ele>
        <time>2008-08-16T14:02:33Z</time>
      </trkpt>
      <trkpt lat="51.53095100" lon="6.778391000">
        <ele>36.991000</ele>
        <time>2008-08-16T14:02:43Z</time>
      </trkpt>
      <trkpt lat="51.53101000" lon="6.778992000">
        <ele>37.077000</ele>
        <time>2008-08-16T14:02:53Z</time>
      </trkpt>
      <trkpt lat="51.53107300" lon="6.779594000">
        <ele>37.123000</ele>
        <time>2008-08-16T14:03:03Z</time>
      </trkpt>
      <trkpt lat="51.53114400" lon="6.780205000">
        <ele>36.993000</ele>
        <time>2008-08-16T14:03:13Z</time>
      </trkpt>
      <trkpt lat="51.53121100" lon="6.780822000">
        <ele>36.935000</ele>
        <time>2008-08-16T14:03:23Z</time>
      </trkpt>
      <trkpt lat="51.53126600" lon="6.781435000">
        <ele>36.993000</ele>
        <time>2008-08-16T14:03:33Z</time>
      </trkpt>
      <trkpt lat="51.53132300" lon="6.782040000">
        <ele>37.111000</ele>
        <time>2008-08-16T14:03:43Z</time>
      </trkpt>
      <trkpt lat="51.53138700" lon="6.782647000">
        <ele>37.095000</ele>
        <time>2008-08-16T14:03:53Z</time>
      </trkpt>
      <trkpt lat="51.53143900" lon="6.783261000">
        <ele>37.095000</ele>
        <time>2008-08-16T14:04:03Z</time>
      </trkpt>
      <trkpt lat="51.53146000" lon="6.783865000">
        <ele>36.771000</ele>
        <time>2008-08-16T14:04:13Z</time>
      </trkpt>
      <trkpt lat="51.53147200" lon="6.784480000">
        <ele>37.090000</ele>
        <time>2008-08-16T14:04:23Z</time>
      </trkpt>
      <trkpt lat="51.53149600" lon="6.785097000">
        <ele>36.924000</ele>
        <time>2008-08-16T14:04:33Z</time>
      </trkpt>
      <trkpt lat="51.53152400" lon="6.785703000">
        <ele>37.122000</ele>
        <time>2008-08-16T14:04:43Z</time>
      </trkpt>
      <trkpt lat="51.53154500" lon="6.786300000">
        <ele>37.040000</ele>
        <time>2008-08-16T14:04:53Z</time>
      </trkpt>
      <trkpt lat="51.53155300" lon="6.786927000">
        <ele>37.082000</ele>
        <time>2008-08-16T14:05:03Z</time>
      </trkpt>
      <trkpt lat="51.53151400" lon="6.787554000">
        <ele>36.876000</ele>
        <time>2008-08-16T14:05:14Z</time>
      </trkpt>
      <trkpt lat="51.53149300" lon="6.788143000">
        <ele>36.992000</ele>
        <time>2008-08-16T14:05:24Z</time>
      </trkpt>
      <trkpt lat="51.53144900" lon="6.788776000">
        <ele>37.258000</ele>
        <time>2008-08-16T14:05:35Z</time>
      </trkpt>
      <trkpt lat="51.53142200" lon="6.789402000">
        <ele>37.283000</ele>
        <time>2008-08-16T14:05:46Z</time>
      </trkpt>
      <trkpt lat="51.53145000" lon="6.789951000">
        <ele>37.047000</ele>
        <time>2008-08-16T14:06:00Z</time>
      </trkpt>
      <trkpt lat="51.53144300" lon="6.789945000">
        <ele>36.918000</ele>
        <time>2008-08-16T14:06:08Z</time>
      </trkpt>
      <trkpt lat="51.53144300" lon="6.789985000">
        <ele>36.633000</ele>
        <time>2008-08-16T14:15:21Z</time>
      </trkpt>
      <trkpt lat="51.53144800" lon="6.790073000">
        <ele>36.480000</ele>
        <time>2008-08-16T14:15:26Z</time>
      </trkpt>
      <trkpt lat="51.53144500" lon="6.790203000">
        <ele>36.386000</ele>
        <time>2008-08-16T14:15:31Z</time>
      </trkpt>
      <trkpt lat="51.53147900" lon="6.790803000">
        <ele>36.820000</ele>
        <time>2008-08-16T14:15:45Z</time>
      </trkpt>
      <trkpt lat="51.53154200" lon="6.791377000">
        <ele>36.177000</ele>
        <time>2008-08-16T14:15:58Z</time>
      </trkpt>
      <trkpt lat="51.53162900" lon="6.791951000">
        <ele>36.610000</ele>
        <time>2008-08-16T14:16:15Z</time>
      </trkpt>
      <trkpt lat="51.53174100" lon="6.792540000">
        <ele>36.472000</ele>
        <time>2008-08-16T14:16:27Z</time>
      </trkpt>
      <trkpt lat="51.53188000" lon="6.793128000">
        <ele>36.626000</ele>
        <time>2008-08-16T14:16:39Z</time>
      </trkpt>
      <trkpt lat="51.53201100" lon="6.793712000">
        <ele>36.678000</ele>
        <time>2008-08-16T14:16:50Z</time>
      </trkpt>
      <trkpt lat="51.53214600" lon="6.794282000">
        <ele>36.322000</ele>
        <time>2008-08-16T14:17:00Z</time>
      </trkpt>
      <trkpt lat="51.53227800" lon="6.794875000">
        <ele>36.378000</ele>
        <time>2008-08-16T14:17:10Z</time>
      </trkpt>
      <trkpt lat="51.53241400" lon="6.795460000">
        <ele>36.419000</ele>
        <time>2008-08-16T14:17:20Z</time>
      </trkpt>
      <trkpt lat="51.53254500" lon="6.796042000">
        <ele>35.797000</ele>
        <time>2008-08-16T14:17:30Z</time>
      </trkpt>
      <trkpt lat="51.53268600" lon="6.796644000">
        <ele>35.808000</ele>
        <time>2008-08-16T14:17:40Z</time>
      </trkpt>
      <trkpt lat="51.53282000" lon="6.797214000">
        <ele>35.338000</ele>
        <time>2008-08-16T14:17:49Z</time>
      </trkpt>
      <trkpt lat="51.53294800" lon="6.797788000">
        <ele>35.083000</ele>
        <time>2008-08-16T14:17:58Z</time>
      </trkpt>
      <trkpt lat="51.53308000" lon="6.798357000">
        <ele>34.656000</ele>
        <time>2008-08-16T14:18:07Z</time>
      </trkpt>
      <trkpt lat="51.53320500" lon="6.798869000">
        <ele>34.199000</ele>
        <time>2008-08-16T14:18:15Z</time>
      </trkpt>
      <trkpt lat="51.53326100" lon="6.799060000">
        <ele>33.845000</ele>
        <time>2008-08-16T14:18:18Z</time>
      </trkpt>
      <trkpt lat="51.53339600" lon="6.799705000">
        <ele>33.702000</ele>
        <time>2008-08-16T14:18:28Z</time>
      </trkpt>
      <trkpt lat="51.53352900" lon="6.800268000">
        <ele>33.015000</ele>
        <time>2008-08-16T14:18:37Z</time>
      </trkpt>
      <trkpt lat="51.53364700" lon="6.800769000">
        <ele>32.960000</ele>
        <time>2008-08-16T14:18:45Z</time>
      </trkpt>
      <trkpt lat="51.53379600" lon="6.801387000">
        <ele>32.787000</ele>
        <time>2008-08-16T14:18:55Z</time>
      </trkpt>
      <trkpt lat="51.53392600" lon="6.801950000">
        <ele>32.585000</ele>
        <time>2008-08-16T14:19:04Z</time>
      </trkpt>
      <trkpt lat="51.53406200" lon="6.802539000">
        <ele>32.832000</ele>
        <time>2008-08-16T14:19:14Z</time>
      </trkpt>
      <trkpt lat="51.53420200" lon="6.803122000">
        <ele>33.172000</ele>
        <time>2008-08-16T14:19:25Z</time>
      </trkpt>
      <trkpt lat="51.53432700" lon="6.803693000">
        <ele>32.752000</ele>
        <time>2008-08-16T14:19:36Z</time>
      </trkpt>
      <trkpt lat="51.53441900" lon="6.804283000">
        <ele>32.996000</ele>
        <time>2008-08-16T14:19:47Z</time>
      </trkpt>
      <trkpt lat="51.53446000" lon="6.804890000">
        <ele>32.973000</ele>
        <time>2008-08-16T14:19:58Z</time>
      </trkpt>
      <trkpt lat="51.53445200" lon="6.805484000">
        <ele>33.143000</ele>
        <time>2008-08-16T14:20:09Z</time>
      </trkpt>
      <trkpt lat="51.53437500" lon="6.806080000">
        <ele>32.662000</ele>
        <time>2008-08-16T14:20:20Z</time>
      </trkpt>
      <trkpt lat="51.53423600" lon="6.806677000">
        <ele>31.554000</ele>
        <time>2008-08-16T14:20:30Z</time>
      </trkpt>
      <trkpt lat="51.53419600" lon="6.806805000">
        <ele>31.548000</ele>
        <time>2008-08-16T14:20:32Z</time>
      </trkpt>
      <trkpt lat="51.53396900" lon="6.807373000">
        <ele>30.479000</ele>
        <time>2008-08-16T14:20:41Z</time>
      </trkpt>
      <trkpt lat="51.53376600" lon="6.807865000">
        <ele>29.749000</ele>
        <time>2008-08-16T14:20:49Z</time>
      </trkpt>
      <trkpt lat="51.53356600" lon="6.808346000">
        <ele>29.184000</ele>
        <time>2008-08-16T14:21:00Z</time>
      </trkpt>
      <trkpt lat="51.53354900" lon="6.808378000">
        <ele>29.023000</ele>
        <time>2008-08-16T14:21:03Z</time>
      </trkpt>
      <trkpt lat="51.53354300" lon="6.808397000">
        <ele>29.275000</ele>
        <time>2008-08-16T14:21:12Z</time>
      </trkpt>
      <trkpt lat="51.53348800" lon="6.808556000">
        <ele>29.183000</ele>
        <time>2008-08-16T14:21:16Z</time>
      </trkpt>
      <trkpt lat="51.53326000" lon="6.809117000">
        <ele>29.330000</ele>
        <time>2008-08-16T14:21:29Z</time>
      </trkpt>
      <trkpt lat="51.53306200" lon="6.809607000">
        <ele>29.761000</ele>
        <time>2008-08-16T14:21:40Z</time>
      </trkpt>
      <trkpt lat="51.53285100" lon="6.810135000">
        <ele>30.021000</ele>
        <time>2008-08-16T14:21:52Z</time>
      </trkpt>
      <trkpt lat="51.53266200" lon="6.810623000">
        <ele>30.364000</ele>
        <time>2008-08-16T14:22:03Z</time>
      </trkpt>
      <trkpt lat="51.53246000" lon="6.811123000">
        <ele>30.547000</ele>
        <time>2008-08-16T14:22:14Z</time>
      </trkpt>
      <trkpt lat="51.53226200" lon="6.811606000">
        <ele>31.014000</ele>
        <time>2008-08-16T14:22:25Z</time>
      </trkpt>
      <trkpt lat="51.53204800" lon="6.812125000">
        <ele>31.619000</ele>
        <time>2008-08-16T14:22:36Z</time>
      </trkpt>
      <trkpt lat="51.53183000" lon="6.812652000">
        <ele>31.938000</ele>
        <time>2008-08-16T14:22:47Z</time>
      </trkpt>
      <trkpt lat="51.53162200" lon="6.813172000">
        <ele>32.211000</ele>
        <time>2008-08-16T14:22:58Z</time>
      </trkpt>
      <trkpt lat="51.53141200" lon="6.813682000">
        <ele>32.766000</ele>
        <time>2008-08-16T14:23:09Z</time>
      </trkpt>
      <trkpt lat="51.53119400" lon="6.814200000">
        <ele>32.978000</ele>
        <time>2008-08-16T14:23:21Z</time>
      </trkpt>
      <trkpt lat="51.53097700" lon="6.814727000">
        <ele>33.242000</ele>
        <time>2008-08-16T14:23:33Z</time>
      </trkpt>
      <trkpt lat="51.53077000" lon="6.815236000">
        <ele>33.574000</ele>
        <time>2008-08-16T14:23:45Z</time>
      </trkpt>
      <trkpt lat="51.53057800" lon="6.815726000">
        <ele>33.663000</ele>
        <time>2008-08-16T14:23:56Z</time>
      </trkpt>
      <trkpt lat="51.53037400" lon="6.816244000">
        <ele>33.826000</ele>
        <time>2008-08-16T14:24:07Z</time>
      </trkpt>
      <trkpt lat="51.53015200" lon="6.816740000">
        <ele>34.212000</ele>
        <time>2008-08-16T14:24:18Z</time>
      </trkpt>
      <trkpt lat="51.52990400" lon="6.817226000">
        <ele>34.127000</ele>
        <time>2008-08-16T14:24:29Z</time>
      </trkpt>
      <trkpt lat="51.52965600" lon="6.817707000">
        <ele>34.184000</ele>
        <time>2008-08-16T14:24:40Z</time>
      </trkpt>
      <trkpt lat="51.52940400" lon="6.818193000">
        <ele>34.402000</ele>
        <time>2008-08-16T14:24:51Z</time>
      </trkpt>
      <trkpt lat="51.52915300" lon="6.818685000">
        <ele>34.275000</ele>
        <time>2008-08-16T14:25:02Z</time>
      </trkpt>
      <trkpt lat="51.52898000" lon="6.819208000">
        <ele>34.189000</ele>
        <time>2008-08-16T14:25:12Z</time>
      </trkpt>
      <trkpt lat="51.52875000" lon="6.819691000">
        <ele>34.107000</ele>
        <time>2008-08-16T14:25:22Z</time>
      </trkpt>
      <trkpt lat="51.52855400" lon="6.820231000">
        <ele>34.211000</ele>
        <time>2008-08-16T14:25:32Z</time>
      </trkpt>
      <trkpt lat="51.52833900" lon="6.820772000">
        <ele>34.199000</ele>
        <time>2008-08-16T14:25:42Z</time>
      </trkpt>
      <trkpt lat="51.52812900" lon="6.821294000">
        <ele>34.474000</ele>
        <time>2008-08-16T14:25:52Z</time>
      </trkpt>
      <trkpt lat="51.52792600" lon="6.821803000">
        <ele>34.416000</ele>
        <time>2008-08-16T14:26:02Z</time>
      </trkpt>
      <trkpt lat="51.52772300" lon="6.822316000">
        <ele>34.835000</ele>
        <time>2008-08-16T14:26:12Z</time>
      </trkpt>
      <trkpt lat="51.52752200" lon="6.822818000">
        <ele>35.073000</ele>
        <time>2008-08-16T14:26:22Z</time>
      </trkpt>
      <trkpt lat="51.52730700" lon="6.823292000">
        <ele>35.449000</ele>
        <time>2008-08-16T14:26:32Z</time>
      </trkpt>
      <trkpt lat="51.52709400" lon="6.823772000">
        <ele>36.133000</ele>
        <time>2008-08-16T14:26:42Z</time>
      </trkpt>
      <trkpt lat="51.52688500" lon="6.824304000">
        <ele>36.350000</ele>
        <time>2008-08-16T14:26:53Z</time>
      </trkpt>
      <trkpt lat="51.52668100" lon="6.824803000">
        <ele>36.931000</ele>
        <time>2008-08-16T14:27:03Z</time>
      </trkpt>
      <trkpt lat="51.52648100" lon="6.825316000">
        <ele>36.817000</ele>
        <time>2008-08-16T14:27:13Z</time>
      </trkpt>
      <trkpt lat="51.52627500" lon="6.825821000">
        <ele>37.343000</ele>
        <time>2008-08-16T14:27:23Z</time>
      </trkpt>
      <trkpt lat="51.52607700" lon="6.826327000">
        <ele>37.390000</ele>
        <time>2008-08-16T14:27:33Z</time>
      </trkpt>
      <trkpt lat="51.52588100" lon="6.826833000">
        <ele>37.701000</ele>
        <time>2008-08-16T14:27:43Z</time>
      </trkpt>
      <trkpt lat="51.52568500" lon="6.827335000">
        <ele>37.914000</ele>
        <time>2008-08-16T14:27:53Z</time>
      </trkpt>
      <trkpt lat="51.52548200" lon="6.827852000">
        <ele>38.296000</ele>
        <time>2008-08-16T14:28:03Z</time>
      </trkpt>
      <trkpt lat="51.52527600" lon="6.828384000">
        <ele>38.638000</ele>
        <time>2008-08-16T14:28:13Z</time>
      </trkpt>
      <trkpt lat="51.52506200" lon="6.828913000">
        <ele>38.899000</ele>
        <time>2008-08-16T14:28:23Z</time>
      </trkpt>
      <trkpt lat="51.52485700" lon="6.829447000">
        <ele>38.937000</ele>
        <time>2008-08-16T14:28:33Z</time>
      </trkpt>
      <trkpt lat="51.52464700" lon="6.829960000">
        <ele>39.535000</ele>
        <time>2008-08-16T14:28:43Z</time>
      </trkpt>
      <trkpt lat="51.52443300" lon="6.830481000">
        <ele>39.599000</ele>
        <time>2008-08-16T14:28:53Z</time>
      </trkpt>
      <trkpt lat="51.52422800" lon="6.830996000">
        <ele>39.302000</ele>
        <time>2008-08-16T14:29:03Z</time>
      </trkpt>
      <trkpt lat="51.52417600" lon="6.831121000">
        <ele>39.518000</ele>
        <time>2008-08-16T14:29:06Z</time>
      </trkpt>
      <trkpt lat="51.52411000" lon="6.831382000">
        <ele>39.102000</ele>
        <time>2008-08-16T14:29:12Z</time>
      </trkpt>
      <trkpt lat="51.52407500" lon="6.831463000">
        <ele>39.341000</ele>
        <time>2008-08-16T14:29:15Z</time>
      </trkpt>
      <trkpt lat="51.52400000" lon="6.831462000">
        <ele>39.264000</ele>
        <time>2008-08-16T14:29:25Z</time>
      </trkpt>
      <trkpt lat="51.52398300" lon="6.831416000">
        <ele>39.462000</ele>
        <time>2008-08-16T14:29:31Z</time>
      </trkpt>
      <trkpt lat="51.52380200" lon="6.831964000">
        <ele>40.420000</ele>
        <time>2008-08-16T14:29:50Z</time>
      </trkpt>
      <trkpt lat="51.52369000" lon="6.832296000">
        <ele>41.258000</ele>
        <time>2008-08-16T14:30:00Z</time>
      </trkpt>
      <trkpt lat="51.52366300" lon="6.832169000">
        <ele>41.849000</ele>
        <time>2008-08-16T14:30:09Z</time>
      </trkpt>
      <trkpt lat="51.52385200" lon="6.831630000">
        <ele>43.962000</ele>
        <time>2008-08-16T14:30:27Z</time>
      </trkpt>
      <trkpt lat="51.52394800" lon="6.831251000">
        <ele>45.594000</ele>
        <time>2008-08-16T14:30:39Z</time>
      </trkpt>
      <trkpt lat="51.52394600" lon="6.831195000">
        <ele>45.792000</ele>
        <time>2008-08-16T14:30:46Z</time>
      </trkpt>
      <trkpt lat="51.52394600" lon="6.831160000">
        <ele>45.834000</ele>
        <time>2008-08-16T14:30:48Z</time>
      </trkpt>
      <trkpt lat="51.52394000" lon="6.831094000">
        <ele>46.047000</ele>
        <time>2008-08-16T14:30:50Z</time>
      </trkpt>
      <trkpt lat="51.52356000" lon="6.830902000">
        <ele>44.644000</ele>
        <time>2008-08-16T14:31:02Z</time>
      </trkpt>
      <trkpt lat="51.52318700" lon="6.830760000">
        <ele>43.440000</ele>
        <time>2008-08-16T14:31:10Z</time>
      </trkpt>
      <trkpt lat="51.52281200" lon="6.830612000">
        <ele>42.576000</ele>
        <time>2008-08-16T14:31:17Z</time>
      </trkpt>
      <trkpt lat="51.52241400" lon="6.830453000">
        <ele>41.485000</ele>
        <time>2008-08-16T14:31:24Z</time>
      </trkpt>
      <trkpt lat="51.52201100" lon="6.830304000">
        <ele>40.410000</ele>
        <time>2008-08-16T14:31:31Z</time>
      </trkpt>
      <trkpt lat="51.52164100" lon="6.830111000">
        <ele>39.779000</ele>
        <time>2008-08-16T14:31:38Z</time>
      </trkpt>
      <trkpt lat="51.52138600" lon="6.830001000">
        <ele>39.217000</ele>
        <time>2008-08-16T14:31:43Z</time>
      </trkpt>
      <trkpt lat="51.52096400" lon="6.829852000">
        <ele>39.109000</ele>
        <time>2008-08-16T14:31:52Z</time>
      </trkpt>
      <trkpt lat="51.52060300" lon="6.829721000">
        <ele>39.296000</ele>
        <time>2008-08-16T14:32:03Z</time>
      </trkpt>
      <trkpt lat="51.52058000" lon="6.829709000">
        <ele>39.441000</ele>
        <time>2008-08-16T14:32:04Z</time>
      </trkpt>
      <trkpt lat="51.52054200" lon="6.829642000">
        <ele>39.359000</ele>
        <time>2008-08-16T14:32:17Z</time>
      </trkpt>
      <trkpt lat="51.52055100" lon="6.829646000">
        <ele>39.461000</ele>
        <time>2008-08-16T14:32:26Z</time>
      </trkpt>
      <trkpt lat="51.52053400" lon="6.829669000">
        <ele>39.440000</ele>
        <time>2008-08-16T14:32:28Z</time>
      </trkpt>
      <trkpt lat="51.52016300" lon="6.829528000">
        <ele>39.555000</ele>
        <time>2008-08-16T14:32:42Z</time>
      </trkpt>
      <trkpt lat="51.51980900" lon="6.829296000">
        <ele>40.191000</ele>
        <time>2008-08-16T14:32:54Z</time>
      </trkpt>
      <trkpt lat="51.51946600" lon="6.829027000">
        <ele>40.258000</ele>
        <time>2008-08-16T14:33:05Z</time>
      </trkpt>
      <trkpt lat="51.51915100" lon="6.828671000">
        <ele>40.350000</ele>
        <time>2008-08-16T14:33:15Z</time>
      </trkpt>
      <trkpt lat="51.51912400" lon="6.828634000">
        <ele>40.142000</ele>
        <time>2008-08-16T14:33:16Z</time>
      </trkpt>
      <trkpt lat="51.51899700" lon="6.828748000">
        <ele>40.233000</ele>
        <time>2008-08-16T14:33:22Z</time>
      </trkpt>
      <trkpt lat="51.51889900" lon="6.828845000">
        <ele>39.824000</ele>
        <time>2008-08-16T14:33:30Z</time>
      </trkpt>
      <trkpt lat="51.51868600" lon="6.829365000">
        <ele>40.212000</ele>
        <time>2008-08-16T14:33:45Z</time>
      </trkpt>
      <trkpt lat="51.51855800" lon="6.829928000">
        <ele>39.919000</ele>
        <time>2008-08-16T14:33:56Z</time>
      </trkpt>
      <trkpt lat="51.51842100" lon="6.830501000">
        <ele>39.701000</ele>
        <time>2008-08-16T14:34:06Z</time>
      </trkpt>
      <trkpt lat="51.51829000" lon="6.831060000">
        <ele>39.023000</ele>
        <time>2008-08-16T14:34:15Z</time>
      </trkpt>
      <trkpt lat="51.51815900" lon="6.831649000">
        <ele>38.729000</ele>
        <time>2008-08-16T14:34:24Z</time>
      </trkpt>
      <trkpt lat="51.51803400" lon="6.832260000">
        <ele>38.381000</ele>
        <time>2008-08-16T14:34:33Z</time>
      </trkpt>
      <trkpt lat="51.51801900" lon="6.832391000">
        <ele>38.014000</ele>
        <time>2008-08-16T14:34:35Z</time>
      </trkpt>
      <trkpt lat="51.51788300" lon="6.833083000">
        <ele>37.299000</ele>
        <time>2008-08-16T14:34:45Z</time>
      </trkpt>
      <trkpt lat="51.51785200" lon="6.833230000">
        <ele>37.013000</ele>
        <time>2008-08-16T14:34:47Z</time>
      </trkpt>
      <trkpt lat="51.51771800" lon="6.833933000">
        <ele>35.972000</ele>
        <time>2008-08-16T14:34:56Z</time>
      </trkpt>
      <trkpt lat="51.51759500" lon="6.834491000">
        <ele>35.502000</ele>
        <time>2008-08-16T14:35:03Z</time>
      </trkpt>
      <trkpt lat="51.51747300" lon="6.835085000">
        <ele>35.673000</ele>
        <time>2008-08-16T14:35:11Z</time>
      </trkpt>
      <trkpt lat="51.51743000" lon="6.835360000">
        <ele>35.847000</ele>
        <time>2008-08-16T14:35:15Z</time>
      </trkpt>
      <trkpt lat="51.51741500" lon="6.835548000">
        <ele>35.661000</ele>
        <time>2008-08-16T14:35:18Z</time>
      </trkpt>
      <trkpt lat="51.51737100" lon="6.835753000">
        <ele>35.866000</ele>
        <time>2008-08-16T14:35:21Z</time>
      </trkpt>
      <trkpt lat="51.51735700" lon="6.835876000">
        <ele>35.876000</ele>
        <time>2008-08-16T14:35:23Z</time>
      </trkpt>
      <trkpt lat="51.51728200" lon="6.836278000">
        <ele>35.922000</ele>
        <time>2008-08-16T14:35:29Z</time>
      </trkpt>
      <trkpt lat="51.51712000" lon="6.836957000">
        <ele>36.312000</ele>
        <time>2008-08-16T14:35:39Z</time>
      </trkpt>
      <trkpt lat="51.51707500" lon="6.837160000">
        <ele>36.347000</ele>
        <time>2008-08-16T14:35:42Z</time>
      </trkpt>
      <trkpt lat="51.51703600" lon="6.837367000">
        <ele>36.484000</ele>
        <time>2008-08-16T14:35:45Z</time>
      </trkpt>
      <trkpt lat="51.51699000" lon="6.837631000">
        <ele>36.704000</ele>
        <time>2008-08-16T14:35:49Z</time>
      </trkpt>
      <trkpt lat="51.51689300" lon="6.838082000">
        <ele>36.873000</ele>
        <time>2008-08-16T14:35:56Z</time>
      </trkpt>
      <trkpt lat="51.51674500" lon="6.838699000">
        <ele>37.305000</ele>
        <time>2008-08-16T14:36:06Z</time>
      </trkpt>
      <trkpt lat="51.51659300" lon="6.839242000">
        <ele>37.730000</ele>
        <time>2008-08-16T14:36:16Z</time>
      </trkpt>
      <trkpt lat="51.51636300" lon="6.839748000">
        <ele>37.089000</ele>
        <time>2008-08-16T14:36:26Z</time>
      </trkpt>
      <trkpt lat="51.51632300" lon="6.839823000">
        <ele>37.289000</ele>
        <time>2008-08-16T14:36:28Z</time>
      </trkpt>
      <trkpt lat="51.51617600" lon="6.839836000">
        <ele>36.846000</ele>
        <time>2008-08-16T14:36:33Z</time>
      </trkpt>
      <trkpt lat="51.51576000" lon="6.839825000">
        <ele>36.710000</ele>
        <time>2008-08-16T14:36:45Z</time>
      </trkpt>
      <trkpt lat="51.51539700" lon="6.839851000">
        <ele>36.553000</ele>
        <time>2008-08-16T14:36:54Z</time>
      </trkpt>
      <trkpt lat="51.51503500" lon="6.839881000">
        <ele>36.187000</ele>
        <time>2008-08-16T14:37:03Z</time>
      </trkpt>
      <trkpt lat="51.51465600" lon="6.839929000">
        <ele>35.793000</ele>
        <time>2008-08-16T14:37:14Z</time>
      </trkpt>
      <trkpt lat="51.51428000" lon="6.840002000">
        <ele>36.045000</ele>
        <time>2008-08-16T14:37:26Z</time>
      </trkpt>
      <trkpt lat="51.51392300" lon="6.840083000">
        <ele>36.363000</ele>
        <time>2008-08-16T14:37:36Z</time>
      </trkpt>
      <trkpt lat="51.51356500" lon="6.840192000">
        <ele>36.415000</ele>
        <time>2008-08-16T14:37:46Z</time>
      </trkpt>
      <trkpt lat="51.51321000" lon="6.840361000">
        <ele>36.528000</ele>
        <time>2008-08-16T14:37:56Z</time>
      </trkpt>
      <trkpt lat="51.51285400" lon="6.840548000">
        <ele>36.704000</ele>
        <time>2008-08-16T14:38:06Z</time>
      </trkpt>
      <trkpt lat="51.51250800" lon="6.840739000">
        <ele>37.064000</ele>
        <time>2008-08-16T14:38:16Z</time>
      </trkpt>
      <trkpt lat="51.51215900" lon="6.840943000">
        <ele>37.269000</ele>
        <time>2008-08-16T14:38:26Z</time>
      </trkpt>
      <trkpt lat="51.51181700" lon="6.841141000">
        <ele>37.861000</ele>
        <time>2008-08-16T14:38:36Z</time>
      </trkpt>
      <trkpt lat="51.51148200" lon="6.841339000">
        <ele>37.981000</ele>
        <time>2008-08-16T14:38:46Z</time>
      </trkpt>
      <trkpt lat="51.51111100" lon="6.841516000">
        <ele>38.098000</ele>
        <time>2008-08-16T14:38:57Z</time>
      </trkpt>
      <trkpt lat="51.51073700" lon="6.841547000">
        <ele>38.474000</ele>
        <time>2008-08-16T14:39:08Z</time>
      </trkpt>
      <trkpt lat="51.51037900" lon="6.841502000">
        <ele>38.305000</ele>
        <time>2008-08-16T14:39:18Z</time>
      </trkpt>
      <trkpt lat="51.50998000" lon="6.841490000">
        <ele>38.551000</ele>
        <time>2008-08-16T14:39:28Z</time>
      </trkpt>
      <trkpt lat="51.50959400" lon="6.841596000">
        <ele>38.382000</ele>
        <time>2008-08-16T14:39:38Z</time>
      </trkpt>
      <trkpt lat="51.50923300" lon="6.841812000">
        <ele>38.226000</ele>
        <time>2008-08-16T14:39:48Z</time>
      </trkpt>
      <trkpt lat="51.50889900" lon="6.842141000">
        <ele>38.806000</ele>
        <time>2008-08-16T14:39:58Z</time>
      </trkpt>
      <trkpt lat="51.50863400" lon="6.842559000">
        <ele>39.171000</ele>
        <time>2008-08-16T14:40:08Z</time>
      </trkpt>
      <trkpt lat="51.50841500" lon="6.843032000">
        <ele>39.391000</ele>
        <time>2008-08-16T14:40:18Z</time>
      </trkpt>
      <trkpt lat="51.50819800" lon="6.843561000">
        <ele>39.923000</ele>
        <time>2008-08-16T14:40:29Z</time>
      </trkpt>
      <trkpt lat="51.50790700" lon="6.843997000">
        <ele>39.145000</ele>
        <time>2008-08-16T14:40:39Z</time>
      </trkpt>
      <trkpt lat="51.50761900" lon="6.844337000">
        <ele>38.477000</ele>
        <time>2008-08-16T14:40:47Z</time>
      </trkpt>
      <trkpt lat="51.50733100" lon="6.844679000">
        <ele>37.771000</ele>
        <time>2008-08-16T14:40:55Z</time>
      </trkpt>
      <trkpt lat="51.50699100" lon="6.844954000">
        <ele>36.984000</ele>
        <time>2008-08-16T14:41:03Z</time>
      </trkpt>
      <trkpt lat="51.50661700" lon="6.845141000">
        <ele>36.311000</ele>
        <time>2008-08-16T14:41:11Z</time>
      </trkpt>
      <trkpt lat="51.50624900" lon="6.845315000">
        <ele>35.906000</ele>
        <time>2008-08-16T14:41:19Z</time>
      </trkpt>
      <trkpt lat="51.50587700" lon="6.845481000">
        <ele>35.432000</ele>
        <time>2008-08-16T14:41:27Z</time>
      </trkpt>
      <trkpt lat="51.50552200" lon="6.845646000">
        <ele>34.873000</ele>
        <time>2008-08-16T14:41:35Z</time>
      </trkpt>
      <trkpt lat="51.50516200" lon="6.845799000">
        <ele>34.788000</ele>
        <time>2008-08-16T14:41:43Z</time>
      </trkpt>
      <trkpt lat="51.50481200" lon="6.845953000">
        <ele>34.582000</ele>
        <time>2008-08-16T14:41:51Z</time>
      </trkpt>
      <trkpt lat="51.50445200" lon="6.846084000">
        <ele>34.351000</ele>
        <time>2008-08-16T14:42:02Z</time>
      </trkpt>
      <trkpt lat="51.50409800" lon="6.846192000">
        <ele>34.803000</ele>
        <time>2008-08-16T14:42:14Z</time>
      </trkpt>
      <trkpt lat="51.50372300" lon="6.846306000">
        <ele>35.090000</ele>
        <time>2008-08-16T14:42:26Z</time>
      </trkpt>
      <trkpt lat="51.50336700" lon="6.846430000">
        <ele>35.232000</ele>
        <time>2008-08-16T14:42:37Z</time>
      </trkpt>
      <trkpt lat="51.50300700" lon="6.846534000">
        <ele>35.770000</ele>
        <time>2008-08-16T14:42:48Z</time>
      </trkpt>
      <trkpt lat="51.50263300" lon="6.846604000">
        <ele>35.778000</ele>
        <time>2008-08-16T14:42:59Z</time>
      </trkpt>
      <trkpt lat="51.50224800" lon="6.846568000">
        <ele>35.726000</ele>
        <time>2008-08-16T14:43:10Z</time>
      </trkpt>
      <trkpt lat="51.50188600" lon="6.846429000">
        <ele>36.217000</ele>
        <time>2008-08-16T14:43:21Z</time>
      </trkpt>
      <trkpt lat="51.50155400" lon="6.846270000">
        <ele>36.590000</ele>
        <time>2008-08-16T14:43:33Z</time>
      </trkpt>
      <trkpt lat="51.50124500" lon="6.845906000">
        <ele>36.866000</ele>
        <time>2008-08-16T14:43:45Z</time>
      </trkpt>
      <trkpt lat="51.50095300" lon="6.845552000">
        <ele>36.943000</ele>
        <time>2008-08-16T14:43:56Z</time>
      </trkpt>
      <trkpt lat="51.50068100" lon="6.845142000">
        <ele>37.720000</ele>
        <time>2008-08-16T14:44:08Z</time>
      </trkpt>
      <trkpt lat="51.50040500" lon="6.844728000">
        <ele>37.986000</ele>
        <time>2008-08-16T14:44:20Z</time>
      </trkpt>
      <trkpt lat="51.50013200" lon="6.844340000">
        <ele>38.952000</ele>
        <time>2008-08-16T14:44:32Z</time>
      </trkpt>
      <trkpt lat="51.50000700" lon="6.843761000">
        <ele>39.179000</ele>
        <time>2008-08-16T14:44:44Z</time>
      </trkpt>
      <trkpt lat="51.49993900" lon="6.843189000">
        <ele>39.496000</ele>
        <time>2008-08-16T14:44:55Z</time>
      </trkpt>
      <trkpt lat="51.49986600" lon="6.842604000">
        <ele>40.016000</ele>
        <time>2008-08-16T14:45:06Z</time>
      </trkpt>
      <trkpt lat="51.49982500" lon="6.841998000">
        <ele>39.838000</ele>
        <time>2008-08-16T14:45:18Z</time>
      </trkpt>
      <trkpt lat="51.49975200" lon="6.841724000">
        <ele>39.599000</ele>
        <time>2008-08-16T14:45:27Z</time>
      </trkpt>
      <trkpt lat="51.49975200" lon="6.841721000">
        <ele>39.382000</ele>
        <time>2008-08-16T14:45:35Z</time>
      </trkpt>
      <trkpt lat="51.49975100" lon="6.841714000">
        <ele>39.603000</ele>
        <time>2008-08-16T14:45:39Z</time>
      </trkpt>
      <trkpt lat="51.49974900" lon="6.841680000">
        <ele>39.427000</ele>
        <time>2008-08-16T14:45:41Z</time>
      </trkpt>
      <trkpt lat="51.49975400" lon="6.841660000">
        <ele>39.309000</ele>
        <time>2008-08-16T14:45:51Z</time>
      </trkpt>
      <trkpt lat="51.49975200" lon="6.841654000">
        <ele>39.783000</ele>
        <time>2008-08-16T14:47:05Z</time>
      </trkpt>
      <trkpt lat="51.49976300" lon="6.841588000">
        <ele>39.762000</ele>
        <time>2008-08-16T14:47:10Z</time>
      </trkpt>
      <trkpt lat="51.49969200" lon="6.840926000">
        <ele>39.670000</ele>
        <time>2008-08-16T14:47:24Z</time>
      </trkpt>
      <trkpt lat="51.49963000" lon="6.840341000">
        <ele>39.371000</ele>
        <time>2008-08-16T14:47:34Z</time>
      </trkpt>
      <trkpt lat="51.49955900" lon="6.839729000">
        <ele>39.195000</ele>
        <time>2008-08-16T14:47:44Z</time>
      </trkpt>
      <trkpt lat="51.49950200" lon="6.839156000">
        <ele>39.194000</ele>
        <time>2008-08-16T14:47:53Z</time>
      </trkpt>
      <trkpt lat="51.49944800" lon="6.838573000">
        <ele>38.854000</ele>
        <time>2008-08-16T14:48:02Z</time>
      </trkpt>
      <trkpt lat="51.49939400" lon="6.837991000">
        <ele>38.762000</ele>
        <time>2008-08-16T14:48:11Z</time>
      </trkpt>
      <trkpt lat="51.49933500" lon="6.837408000">
        <ele>38.777000</ele>
        <time>2008-08-16T14:48:20Z</time>
      </trkpt>
      <trkpt lat="51.49927700" lon="6.836811000">
        <ele>38.279000</ele>
        <time>2008-08-16T14:48:29Z</time>
      </trkpt>
      <trkpt lat="51.49921900" lon="6.836221000">
        <ele>38.337000</ele>
        <time>2008-08-16T14:48:38Z</time>
      </trkpt>
      <trkpt lat="51.49915800" lon="6.835646000">
        <ele>38.013000</ele>
        <time>2008-08-16T14:48:47Z</time>
      </trkpt>
      <trkpt lat="51.49909400" lon="6.835046000">
        <ele>37.853000</ele>
        <time>2008-08-16T14:48:56Z</time>
      </trkpt>
      <trkpt lat="51.49908800" lon="6.834979000">
        <ele>37.782000</ele>
        <time>2008-08-16T14:48:57Z</time>
      </trkpt>
      <trkpt lat="51.49905900" lon="6.834646000">
        <ele>37.704000</ele>
        <time>2008-08-16T14:49:02Z</time>
      </trkpt>
      <trkpt lat="51.49898900" lon="6.833988000">
        <ele>37.519000</ele>
        <time>2008-08-16T14:49:12Z</time>
      </trkpt>
      <trkpt lat="51.49898000" lon="6.833923000">
        <ele>37.323000</ele>
        <time>2008-08-16T14:49:13Z</time>
      </trkpt>
      <trkpt lat="51.49897300" lon="6.833790000">
        <ele>37.224000</ele>
        <time>2008-08-16T14:49:15Z</time>
      </trkpt>
      <trkpt lat="51.49893500" lon="6.833462000">
        <ele>37.294000</ele>
        <time>2008-08-16T14:49:20Z</time>
      </trkpt>
      <trkpt lat="51.49884300" lon="6.832818000">
        <ele>37.193000</ele>
        <time>2008-08-16T14:49:30Z</time>
      </trkpt>
      <trkpt lat="51.49873200" lon="6.832233000">
        <ele>36.877000</ele>
        <time>2008-08-16T14:49:39Z</time>
      </trkpt>
      <trkpt lat="51.49866400" lon="6.831769000">
        <ele>36.480000</ele>
        <time>2008-08-16T14:49:46Z</time>
      </trkpt>
      <trkpt lat="51.49853200" lon="6.831153000">
        <ele>36.199000</ele>
        <time>2008-08-16T14:49:55Z</time>
      </trkpt>
      <trkpt lat="51.49838600" lon="6.830574000">
        <ele>36.077000</ele>
        <time>2008-08-16T14:50:04Z</time>
      </trkpt>
      <trkpt lat="51.49837300" lon="6.830508000">
        <ele>35.767000</ele>
        <time>2008-08-16T14:50:05Z</time>
      </trkpt>
      <trkpt lat="51.49827800" lon="6.830197000">
        <ele>35.735000</ele>
        <time>2008-08-16T14:50:10Z</time>
      </trkpt>
      <trkpt lat="51.49809600" lon="6.829545000">
        <ele>35.200000</ele>
        <time>2008-08-16T14:50:20Z</time>
      </trkpt>
      <trkpt lat="51.49792200" lon="6.828890000">
        <ele>34.694000</ele>
        <time>2008-08-16T14:50:30Z</time>
      </trkpt>
      <trkpt lat="51.49787200" lon="6.828694000">
        <ele>34.780000</ele>
        <time>2008-08-16T14:50:33Z</time>
      </trkpt>
      <trkpt lat="51.49770900" lon="6.828085000">
        <ele>34.512000</ele>
        <time>2008-08-16T14:50:42Z</time>
      </trkpt>
      <trkpt lat="51.49756400" lon="6.827539000">
        <ele>34.070000</ele>
        <time>2008-08-16T14:50:50Z</time>
      </trkpt>
      <trkpt lat="51.49741300" lon="6.827011000">
        <ele>33.842000</ele>
        <time>2008-08-16T14:50:58Z</time>
      </trkpt>
      <trkpt lat="51.49739800" lon="6.826946000">
        <ele>33.687000</ele>
        <time>2008-08-16T14:50:59Z</time>
      </trkpt>
      <trkpt lat="51.49719700" lon="6.826348000">
        <ele>33.430000</ele>
        <time>2008-08-16T14:51:09Z</time>
      </trkpt>
      <trkpt lat="51.49702800" lon="6.825788000">
        <ele>33.102000</ele>
        <time>2008-08-16T14:51:19Z</time>
      </trkpt>
      <trkpt lat="51.49687700" lon="6.825209000">
        <ele>32.950000</ele>
        <time>2008-08-16T14:51:29Z</time>
      </trkpt>
      <trkpt lat="51.49683900" lon="6.824671000">
        <ele>33.080000</ele>
        <time>2008-08-16T14:51:39Z</time>
      </trkpt>
      <trkpt lat="51.49716000" lon="6.824432000">
        <ele>33.591000</ele>
        <time>2008-08-16T14:51:51Z</time>
      </trkpt>
      <trkpt lat="51.49752600" lon="6.824325000">
        <ele>32.969000</ele>
        <time>2008-08-16T14:52:01Z</time>
      </trkpt>
      <trkpt lat="51.49788200" lon="6.824192000">
        <ele>33.319000</ele>
        <time>2008-08-16T14:52:11Z</time>
      </trkpt>
      <trkpt lat="51.49824400" lon="6.824078000">
        <ele>32.970000</ele>
        <time>2008-08-16T14:52:21Z</time>
      </trkpt>
      <trkpt lat="51.49862900" lon="6.823937000">
        <ele>33.297000</ele>
        <time>2008-08-16T14:52:32Z</time>
      </trkpt>
      <trkpt lat="51.49891900" lon="6.823844000">
        <ele>33.188000</ele>
        <time>2008-08-16T14:52:42Z</time>
      </trkpt>
      <trkpt lat="51.49893600" lon="6.823267000">
        <ele>33.266000</ele>
        <time>2008-08-16T14:52:54Z</time>
      </trkpt>
      <trkpt lat="51.49898700" lon="6.822684000">
        <ele>32.996000</ele>
        <time>2008-08-16T14:53:04Z</time>
      </trkpt>
      <trkpt lat="51.49900900" lon="6.822084000">
        <ele>32.886000</ele>
        <time>2008-08-16T14:53:15Z</time>
      </trkpt>
      <trkpt lat="51.49912500" lon="6.821477000">
        <ele>33.308000</ele>
        <time>2008-08-16T14:53:27Z</time>
      </trkpt>
      <trkpt lat="51.49932100" lon="6.820956000">
        <ele>32.708000</ele>
        <time>2008-08-16T14:53:38Z</time>
      </trkpt>
      <trkpt lat="51.49950000" lon="6.820471000">
        <ele>32.685000</ele>
        <time>2008-08-16T14:53:47Z</time>
      </trkpt>
      <trkpt lat="51.49981900" lon="6.820215000">
        <ele>32.616000</ele>
        <time>2008-08-16T14:53:59Z</time>
      </trkpt>
      <trkpt lat="51.49994200" lon="6.820148000">
        <ele>32.457000</ele>
        <time>2008-08-16T14:54:05Z</time>
      </trkpt>
      <trkpt lat="51.49993600" lon="6.819940000">
        <ele>32.448000</ele>
        <time>2008-08-16T14:54:11Z</time>
      </trkpt>
      <trkpt lat="51.49980400" lon="6.819318000">
        <ele>32.333000</ele>
        <time>2008-08-16T14:54:23Z</time>
      </trkpt>
      <trkpt lat="51.49968400" lon="6.818765000">
        <ele>32.130000</ele>
        <time>2008-08-16T14:54:33Z</time>
      </trkpt>
      <trkpt lat="51.49963900" lon="6.818530000">
        <ele>32.273000</ele>
        <time>2008-08-16T14:54:38Z</time>
      </trkpt>
      <trkpt lat="51.49982700" lon="6.817979000">
        <ele>32.150000</ele>
        <time>2008-08-16T14:54:49Z</time>
      </trkpt>
      <trkpt lat="51.50001600" lon="6.817467000">
        <ele>31.912000</ele>
        <time>2008-08-16T14:54:58Z</time>
      </trkpt>
      <trkpt lat="51.50019800" lon="6.816938000">
        <ele>31.632000</ele>
        <time>2008-08-16T14:55:07Z</time>
      </trkpt>
      <trkpt lat="51.50037600" lon="6.816410000">
        <ele>30.959000</ele>
        <time>2008-08-16T14:55:16Z</time>
      </trkpt>
      <trkpt lat="51.50057400" lon="6.815838000">
        <ele>30.340000</ele>
        <time>2008-08-16T14:55:25Z</time>
      </trkpt>
      <trkpt lat="51.50074700" lon="6.815328000">
        <ele>29.987000</ele>
        <time>2008-08-16T14:55:33Z</time>
      </trkpt>
      <trkpt lat="51.50088400" lon="6.814946000">
        <ele>29.781000</ele>
        <time>2008-08-16T14:55:39Z</time>
      </trkpt>
      <trkpt lat="51.50114700" lon="6.814347000">
        <ele>29.798000</ele>
        <time>2008-08-16T14:55:49Z</time>
      </trkpt>
      <trkpt lat="51.50133300" lon="6.813849000">
        <ele>29.192000</ele>
        <time>2008-08-16T14:55:57Z</time>
      </trkpt>
      <trkpt lat="51.50152500" lon="6.813299000">
        <ele>28.785000</ele>
        <time>2008-08-16T14:56:06Z</time>
      </trkpt>
      <trkpt lat="51.50171100" lon="6.812756000">
        <ele>28.776000</ele>
        <time>2008-08-16T14:56:16Z</time>
      </trkpt>
      <trkpt lat="51.50189000" lon="6.812234000">
        <ele>28.464000</ele>
        <time>2008-08-16T14:56:27Z</time>
      </trkpt>
      <trkpt lat="51.50195500" lon="6.812078000">
        <ele>28.527000</ele>
        <time>2008-08-16T14:56:31Z</time>
      </trkpt>
      <trkpt lat="51.50193200" lon="6.811843000">
        <ele>28.483000</ele>
        <time>2008-08-16T14:56:52Z</time>
      </trkpt>
      <trkpt lat="51.50194700" lon="6.811820000">
        <ele>28.199000</ele>
        <time>2008-08-16T14:56:54Z</time>
      </trkpt>
      <trkpt lat="51.50196800" lon="6.811743000">
        <ele>28.532000</ele>
        <time>2008-08-16T14:56:59Z</time>
      </trkpt>
      <trkpt lat="51.50221700" lon="6.811193000">
        <ele>28.116000</ele>
        <time>2008-08-16T14:57:14Z</time>
      </trkpt>
      <trkpt lat="51.50241500" lon="6.810647000">
        <ele>28.178000</ele>
        <time>2008-08-16T14:57:25Z</time>
      </trkpt>
      <trkpt lat="51.50287300" lon="6.809342000">
        <ele>28.427000</ele>
        <time>2008-08-16T14:57:49Z</time>
      </trkpt>
      <trkpt lat="51.50325900" lon="6.808210000">
        <ele>28.672000</ele>
        <time>2008-08-16T14:58:10Z</time>
      </trkpt>
      <trkpt lat="51.50342300" lon="6.807636000">
        <ele>30.159000</ele>
        <time>2008-08-16T14:58:21Z</time>
      </trkpt>
      <trkpt lat="51.50358900" lon="6.807097000">
        <ele>30.519000</ele>
        <time>2008-08-16T14:58:31Z</time>
      </trkpt>
      <trkpt lat="51.50374300" lon="6.806537000">
        <ele>30.636000</ele>
        <time>2008-08-16T14:58:41Z</time>
      </trkpt>
      <trkpt lat="51.50390800" lon="6.805972000">
        <ele>30.711000</ele>
        <time>2008-08-16T14:58:51Z</time>
      </trkpt>
      <trkpt lat="51.50406500" lon="6.805379000">
        <ele>31.004000</ele>
        <time>2008-08-16T14:59:01Z</time>
      </trkpt>
      <trkpt lat="51.50422400" lon="6.804782000">
        <ele>30.903000</ele>
        <time>2008-08-16T14:59:11Z</time>
      </trkpt>
      <trkpt lat="51.50434500" lon="6.804239000">
        <ele>31.127000</ele>
        <time>2008-08-16T14:59:20Z</time>
      </trkpt>
      <trkpt lat="51.50448100" lon="6.803649000">
        <ele>31.137000</ele>
        <time>2008-08-16T14:59:30Z</time>
      </trkpt>
      <trkpt lat="51.50461600" lon="6.803063000">
        <ele>31.133000</ele>
        <time>2008-08-16T14:59:40Z</time>
      </trkpt>
      <trkpt lat="51.50472200" lon="6.802474000">
        <ele>31.309000</ele>
        <time>2008-08-16T14:59:53Z</time>
      </trkpt>
      <trkpt lat="51.50482500" lon="6.801879000">
        <ele>30.756000</ele>
        <time>2008-08-16T15:00:04Z</time>
      </trkpt>
      <trkpt lat="51.50492400" lon="6.801286000">
        <ele>30.685000</ele>
        <time>2008-08-16T15:00:13Z</time>
      </trkpt>
      <trkpt lat="51.50501400" lon="6.800691000">
        <ele>30.517000</ele>
        <time>2008-08-16T15:00:23Z</time>
      </trkpt>
      <trkpt lat="51.50510200" lon="6.800081000">
        <ele>30.603000</ele>
        <time>2008-08-16T15:00:33Z</time>
      </trkpt>
      <trkpt lat="51.50516300" lon="6.799448000">
        <ele>30.219000</ele>
        <time>2008-08-16T15:00:43Z</time>
      </trkpt>
      <trkpt lat="51.50522100" lon="6.798868000">
        <ele>30.192000</ele>
        <time>2008-08-16T15:00:52Z</time>
      </trkpt>
      <trkpt lat="51.50530500" lon="6.798247000">
        <ele>30.307000</ele>
        <time>2008-08-16T15:01:02Z</time>
      </trkpt>
      <trkpt lat="51.50536700" lon="6.797685000">
        <ele>30.474000</ele>
        <time>2008-08-16T15:01:11Z</time>
      </trkpt>
      <trkpt lat="51.50544000" lon="6.797102000">
        <ele>30.392000</ele>
        <time>2008-08-16T15:01:20Z</time>
      </trkpt>
      <trkpt lat="51.50550000" lon="6.796497000">
        <ele>30.283000</ele>
        <time>2008-08-16T15:01:29Z</time>
      </trkpt>
      <trkpt lat="51.50555800" lon="6.795903000">
        <ele>30.468000</ele>
        <time>2008-08-16T15:01:38Z</time>
      </trkpt>
      <trkpt lat="51.50559600" lon="6.795327000">
        <ele>30.287000</ele>
        <time>2008-08-16T15:01:50Z</time>
      </trkpt>
      <trkpt lat="51.50567200" lon="6.794706000">
        <ele>29.944000</ele>
        <time>2008-08-16T15:02:02Z</time>
      </trkpt>
      <trkpt lat="51.50573200" lon="6.794095000">
        <ele>29.904000</ele>
        <time>2008-08-16T15:02:12Z</time>
      </trkpt>
      <trkpt lat="51.50580000" lon="6.793475000">
        <ele>30.149000</ele>
        <time>2008-08-16T15:02:22Z</time>
      </trkpt>
      <trkpt lat="51.50587700" lon="6.792847000">
        <ele>30.229000</ele>
        <time>2008-08-16T15:02:32Z</time>
      </trkpt>
      <trkpt lat="51.50594400" lon="6.792267000">
        <ele>29.974000</ele>
        <time>2008-08-16T15:02:41Z</time>
      </trkpt>
      <trkpt lat="51.50601500" lon="6.791640000">
        <ele>29.937000</ele>
        <time>2008-08-16T15:02:51Z</time>
      </trkpt>
      <trkpt lat="51.50608000" lon="6.791023000">
        <ele>29.942000</ele>
        <time>2008-08-16T15:03:01Z</time>
      </trkpt>
      <trkpt lat="51.50614600" lon="6.790407000">
        <ele>29.813000</ele>
        <time>2008-08-16T15:03:11Z</time>
      </trkpt>
      <trkpt lat="51.50620200" lon="6.789844000">
        <ele>29.626000</ele>
        <time>2008-08-16T15:03:20Z</time>
      </trkpt>
      <trkpt lat="51.50626600" lon="6.789275000">
        <ele>29.450000</ele>
        <time>2008-08-16T15:03:29Z</time>
      </trkpt>
      <trkpt lat="51.50634200" lon="6.788649000">
        <ele>28.812000</ele>
        <time>2008-08-16T15:03:38Z</time>
      </trkpt>
      <trkpt lat="51.50640600" lon="6.788031000">
        <ele>28.301000</ele>
        <time>2008-08-16T15:03:47Z</time>
      </trkpt>
      <trkpt lat="51.50647800" lon="6.787393000">
        <ele>27.580000</ele>
        <time>2008-08-16T15:03:56Z</time>
      </trkpt>
      <trkpt lat="51.50654200" lon="6.786782000">
        <ele>27.470000</ele>
        <time>2008-08-16T15:04:05Z</time>
      </trkpt>
      <trkpt lat="51.50660200" lon="6.786197000">
        <ele>27.296000</ele>
        <time>2008-08-16T15:04:14Z</time>
      </trkpt>
      <trkpt lat="51.50662900" lon="6.785744000">
        <ele>27.139000</ele>
        <time>2008-08-16T15:04:24Z</time>
      </trkpt>
      <trkpt lat="51.50662700" lon="6.785710000">
        <ele>27.303000</ele>
        <time>2008-08-16T15:04:30Z</time>
      </trkpt>
      <trkpt lat="51.50673300" lon="6.785544000">
        <ele>27.362000</ele>
        <time>2008-08-16T15:04:46Z</time>
      </trkpt>
      <trkpt lat="51.50674100" lon="6.785554000">
        <ele>27.275000</ele>
        <time>2008-08-16T15:04:57Z</time>
      </trkpt>
      <trkpt lat="51.50674200" lon="6.785554000">
        <ele>27.339000</ele>
        <time>2008-08-16T15:04:58Z</time>
      </trkpt>
      <trkpt lat="51.50676100" lon="6.785555000">
        <ele>27.130000</ele>
        <time>2008-08-16T15:05:00Z</time>
      </trkpt>
      <trkpt lat="51.50677300" lon="6.785547000">
        <ele>27.143000</ele>
        <time>2008-08-16T15:05:01Z</time>
      </trkpt>
      <trkpt lat="51.50674900" lon="6.785249000">
        <ele>26.390000</ele>
        <time>2008-08-16T15:05:09Z</time>
      </trkpt>
      <trkpt lat="51.50677300" lon="6.784596000">
        <ele>25.921000</ele>
        <time>2008-08-16T15:05:21Z</time>
      </trkpt>
      <trkpt lat="51.50684600" lon="6.784005000">
        <ele>25.847000</ele>
        <time>2008-08-16T15:05:34Z</time>
      </trkpt>
      <trkpt lat="51.50692800" lon="6.783409000">
        <ele>25.651000</ele>
        <time>2008-08-16T15:05:50Z</time>
      </trkpt>
      <trkpt lat="51.50703300" lon="6.782860000">
        <ele>25.513000</ele>
        <time>2008-08-16T15:06:05Z</time>
      </trkpt>
      <trkpt lat="51.50714800" lon="6.782257000">
        <ele>25.729000</ele>
        <time>2008-08-16T15:06:16Z</time>
      </trkpt>
      <trkpt lat="51.50725300" lon="6.781652000">
        <ele>26.017000</ele>
        <time>2008-08-16T15:06:26Z</time>
      </trkpt>
      <trkpt lat="51.50736700" lon="6.781056000">
        <ele>26.072000</ele>
        <time>2008-08-16T15:06:36Z</time>
      </trkpt>
      <trkpt lat="51.50749300" lon="6.780486000">
        <ele>25.990000</ele>
        <time>2008-08-16T15:06:46Z</time>
      </trkpt>
      <trkpt lat="51.50761500" lon="6.779924000">
        <ele>26.584000</ele>
        <time>2008-08-16T15:06:56Z</time>
      </trkpt>
      <trkpt lat="51.50775400" lon="6.779367000">
        <ele>26.370000</ele>
        <time>2008-08-16T15:07:06Z</time>
      </trkpt>
      <trkpt lat="51.50792000" lon="6.778796000">
        <ele>26.186000</ele>
        <time>2008-08-16T15:07:16Z</time>
      </trkpt>
      <trkpt lat="51.50809200" lon="6.778223000">
        <ele>26.110000</ele>
        <time>2008-08-16T15:07:26Z</time>
      </trkpt>
      <trkpt lat="51.50826500" lon="6.777656000">
        <ele>25.944000</ele>
        <time>2008-08-16T15:07:36Z</time>
      </trkpt>
      <trkpt lat="51.50844200" lon="6.777106000">
        <ele>25.888000</ele>
        <time>2008-08-16T15:07:46Z</time>
      </trkpt>
      <trkpt lat="51.50857200" lon="6.776585000">
        <ele>25.833000</ele>
        <time>2008-08-16T15:07:56Z</time>
      </trkpt>
      <trkpt lat="51.50881600" lon="6.776183000">
        <ele>25.824000</ele>
        <time>2008-08-16T15:08:09Z</time>
      </trkpt>
      <trkpt lat="51.50900100" lon="6.775671000">
        <ele>25.713000</ele>
        <time>2008-08-16T15:08:19Z</time>
      </trkpt>
      <trkpt lat="51.50921400" lon="6.775170000">
        <ele>25.418000</ele>
        <time>2008-08-16T15:08:28Z</time>
      </trkpt>
      <trkpt lat="51.50930900" lon="6.774950000">
        <ele>25.407000</ele>
        <time>2008-08-16T15:08:32Z</time>
      </trkpt>
      <trkpt lat="51.50939500" lon="6.774736000">
        <ele>25.373000</ele>
        <time>2008-08-16T15:08:36Z</time>
      </trkpt>
      <trkpt lat="51.50944100" lon="6.774632000">
        <ele>25.290000</ele>
        <time>2008-08-16T15:08:38Z</time>
      </trkpt>
      <trkpt lat="51.50969200" lon="6.774049000">
        <ele>24.859000</ele>
        <time>2008-08-16T15:08:48Z</time>
      </trkpt>
      <trkpt lat="51.50992800" lon="6.773573000">
        <ele>24.580000</ele>
        <time>2008-08-16T15:08:57Z</time>
      </trkpt>
      <trkpt lat="51.51016900" lon="6.773141000">
        <ele>24.444000</ele>
        <time>2008-08-16T15:09:06Z</time>
      </trkpt>
      <trkpt lat="51.51042300" lon="6.772671000">
        <ele>24.122000</ele>
        <time>2008-08-16T15:09:16Z</time>
      </trkpt>
      <trkpt lat="51.51052200" lon="6.772511000">
        <ele>24.232000</ele>
        <time>2008-08-16T15:09:22Z</time>
      </trkpt>
      <trkpt lat="51.51052800" lon="6.772480000">
        <ele>24.290000</ele>
        <time>2008-08-16T15:09:33Z</time>
      </trkpt>
      <trkpt lat="51.51053000" lon="6.772474000">
        <ele>23.988000</ele>
        <time>2008-08-16T15:09:34Z</time>
      </trkpt>
      <trkpt lat="51.51054400" lon="6.772437000">
        <ele>23.866000</ele>
        <time>2008-08-16T15:09:36Z</time>
      </trkpt>
      <trkpt lat="51.51076500" lon="6.771912000">
        <ele>24.350000</ele>
        <time>2008-08-16T15:09:53Z</time>
      </trkpt>
      <trkpt lat="51.51100000" lon="6.771439000">
        <ele>24.581000</ele>
        <time>2008-08-16T15:10:04Z</time>
      </trkpt>
      <trkpt lat="51.51127800" lon="6.771038000">
        <ele>24.312000</ele>
        <time>2008-08-16T15:10:14Z</time>
      </trkpt>
      <trkpt lat="51.51156900" lon="6.770627000">
        <ele>24.342000</ele>
        <time>2008-08-16T15:10:24Z</time>
      </trkpt>
      <trkpt lat="51.51186300" lon="6.770249000">
        <ele>23.725000</ele>
        <time>2008-08-16T15:10:34Z</time>
      </trkpt>
      <trkpt lat="51.51218400" lon="6.769913000">
        <ele>23.435000</ele>
        <time>2008-08-16T15:10:44Z</time>
      </trkpt>
      <trkpt lat="51.51236100" lon="6.769408000">
        <ele>23.735000</ele>
        <time>2008-08-16T15:10:54Z</time>
      </trkpt>
      <trkpt lat="51.51242800" lon="6.769154000">
        <ele>23.930000</ele>
        <time>2008-08-16T15:11:00Z</time>
      </trkpt>
      <trkpt lat="51.51244500" lon="6.769138000">
        <ele>23.979000</ele>
        <time>2008-08-16T15:11:02Z</time>
      </trkpt>
      <trkpt lat="51.51243700" lon="6.769149000">
        <ele>24.002000</ele>
        <time>2008-08-16T15:11:11Z</time>
      </trkpt>
      <trkpt lat="51.51247300" lon="6.769108000">
        <ele>23.989000</ele>
        <time>2008-08-16T15:11:13Z</time>
      </trkpt>
      <trkpt lat="51.51277000" lon="6.768769000">
        <ele>25.232000</ele>
        <time>2008-08-16T15:11:28Z</time>
      </trkpt>
      <trkpt lat="51.51308300" lon="6.768833000">
        <ele>25.160000</ele>
        <time>2008-08-16T15:11:45Z</time>
      </trkpt>
      <trkpt lat="51.51338500" lon="6.769149000">
        <ele>24.096000</ele>
        <time>2008-08-16T15:11:59Z</time>
      </trkpt>
      <trkpt lat="51.51342900" lon="6.769204000">
        <ele>24.090000</ele>
        <time>2008-08-16T15:12:01Z</time>
      </trkpt>
      <trkpt lat="51.51339700" lon="6.769345000">
        <ele>23.652000</ele>
        <time>2008-08-16T15:12:06Z</time>
      </trkpt>
      <trkpt lat="51.51301700" lon="6.769559000">
        <ele>23.805000</ele>
        <time>2008-08-16T15:12:19Z</time>
      </trkpt>
      <trkpt lat="51.51265600" lon="6.769692000">
        <ele>23.612000</ele>
        <time>2008-08-16T15:12:30Z</time>
      </trkpt>
      <trkpt lat="51.51255700" lon="6.769487000">
        <ele>23.822000</ele>
        <time>2008-08-16T15:12:36Z</time>
      </trkpt>
      <trkpt lat="51.51249700" lon="6.768862000">
        <ele>24.287000</ele>
        <time>2008-08-16T15:12:49Z</time>
      </trkpt>
      <trkpt lat="51.51241700" lon="6.768294000">
        <ele>24.356000</ele>
        <time>2008-08-16T15:13:00Z</time>
      </trkpt>
      <trkpt lat="51.51253900" lon="6.767765000">
        <ele>23.643000</ele>
        <time>2008-08-16T15:13:12Z</time>
      </trkpt>
      <trkpt lat="51.51272600" lon="6.767254000">
        <ele>23.692000</ele>
        <time>2008-08-16T15:13:22Z</time>
      </trkpt>
      <trkpt lat="51.51287300" lon="6.766756000">
        <ele>23.821000</ele>
        <time>2008-08-16T15:13:32Z</time>
      </trkpt>
      <trkpt lat="51.51303800" lon="6.766231000">
        <ele>23.889000</ele>
        <time>2008-08-16T15:13:42Z</time>
      </trkpt>
      <trkpt lat="51.51309900" lon="6.766045000">
        <ele>23.797000</ele>
        <time>2008-08-16T15:13:47Z</time>
      </trkpt>
      <trkpt lat="51.51317400" lon="6.766023000">
        <ele>24.051000</ele>
        <time>2008-08-16T15:13:51Z</time>
      </trkpt>
      <trkpt lat="51.51356700" lon="6.766222000">
        <ele>24.801000</ele>
        <time>2008-08-16T15:14:08Z</time>
      </trkpt>
      <trkpt lat="51.51361500" lon="6.766258000">
        <ele>24.966000</ele>
        <time>2008-08-16T15:14:10Z</time>
      </trkpt>
      <trkpt lat="51.51370300" lon="6.766115000">
        <ele>25.594000</ele>
        <time>2008-08-16T15:14:17Z</time>
      </trkpt>
      <trkpt lat="51.51388200" lon="6.765473000">
        <ele>25.122000</ele>
        <time>2008-08-16T15:14:31Z</time>
      </trkpt>
      <trkpt lat="51.51391900" lon="6.765331000">
        <ele>24.591000</ele>
        <time>2008-08-16T15:14:33Z</time>
      </trkpt>
      <trkpt lat="51.51406600" lon="6.764657000">
        <ele>24.825000</ele>
        <time>2008-08-16T15:14:44Z</time>
      </trkpt>
      <trkpt lat="51.51423500" lon="6.764076000">
        <ele>24.764000</ele>
        <time>2008-08-16T15:14:55Z</time>
      </trkpt>
      <trkpt lat="51.51435900" lon="6.763529000">
        <ele>24.976000</ele>
        <time>2008-08-16T15:15:05Z</time>
      </trkpt>
      <trkpt lat="51.51452200" lon="6.762977000">
        <ele>24.881000</ele>
        <time>2008-08-16T15:15:15Z</time>
      </trkpt>
      <trkpt lat="51.51467100" lon="6.762400000">
        <ele>24.914000</ele>
        <time>2008-08-16T15:15:25Z</time>
      </trkpt>
      <trkpt lat="51.51485600" lon="6.761894000">
        <ele>25.957000</ele>
        <time>2008-08-16T15:15:36Z</time>
      </trkpt>
      <trkpt lat="51.51498700" lon="6.761460000">
        <ele>28.264000</ele>
        <time>2008-08-16T15:15:54Z</time>
      </trkpt>
      <trkpt lat="51.51503800" lon="6.761190000">
        <ele>27.311000</ele>
        <time>2008-08-16T15:16:01Z</time>
      </trkpt>
      <trkpt lat="51.51516500" lon="6.760562000">
        <ele>25.485000</ele>
        <time>2008-08-16T15:16:09Z</time>
      </trkpt>
      <trkpt lat="51.51549700" lon="6.760130000">
        <ele>24.411000</ele>
        <time>2008-08-16T15:16:20Z</time>
      </trkpt>
      <trkpt lat="51.51587400" lon="6.760146000">
        <ele>23.722000</ele>
        <time>2008-08-16T15:16:30Z</time>
      </trkpt>
      <trkpt lat="51.51598500" lon="6.760148000">
        <ele>23.732000</ele>
        <time>2008-08-16T15:16:33Z</time>
      </trkpt>
      <trkpt lat="51.51594400" lon="6.759712000">
        <ele>24.740000</ele>
        <time>2008-08-16T15:16:46Z</time>
      </trkpt>
      <trkpt lat="51.51558400" lon="6.759483000">
        <ele>25.887000</ele>
        <time>2008-08-16T15:17:05Z</time>
      </trkpt>
      <trkpt lat="51.51522700" lon="6.759357000">
        <ele>26.325000</ele>
        <time>2008-08-16T15:17:24Z</time>
      </trkpt>
      <trkpt lat="51.51484600" lon="6.759251000">
        <ele>27.167000</ele>
        <time>2008-08-16T15:17:37Z</time>
      </trkpt>
      <trkpt lat="51.51471600" lon="6.759217000">
        <ele>28.311000</ele>
        <time>2008-08-16T15:17:43Z</time>
      </trkpt>
      <trkpt lat="51.51464000" lon="6.759286000">
        <ele>28.359000</ele>
        <time>2008-08-16T15:17:57Z</time>
      </trkpt>
      <trkpt lat="51.51462000" lon="6.759291000">
        <ele>28.317000</ele>
        <time>2008-08-16T15:18:03Z</time>
      </trkpt>
      <trkpt lat="51.51463500" lon="6.759270000">
        <ele>28.356000</ele>
        <time>2008-08-16T15:18:05Z</time>
      </trkpt>
      <trkpt lat="51.51467500" lon="6.759216000">
        <ele>28.101000</ele>
        <time>2008-08-16T15:18:13Z</time>
      </trkpt>
      <trkpt lat="51.51476500" lon="6.759238000">
        <ele>27.384000</ele>
        <time>2008-08-16T15:18:17Z</time>
      </trkpt>
      <trkpt lat="51.51518600" lon="6.759375000">
        <ele>26.221000</ele>
        <time>2008-08-16T15:18:26Z</time>
      </trkpt>
      <trkpt lat="51.51558200" lon="6.759501000">
        <ele>25.856000</ele>
        <time>2008-08-16T15:18:35Z</time>
      </trkpt>
      <trkpt lat="51.51595300" lon="6.759608000">
        <ele>25.783000</ele>
        <time>2008-08-16T15:18:45Z</time>
      </trkpt>
      <trkpt lat="51.51604600" lon="6.759643000">
        <ele>26.317000</ele>
        <time>2008-08-16T15:18:48Z</time>
      </trkpt>
      <trkpt lat="51.51610300" lon="6.759528000">
        <ele>26.869000</ele>
        <time>2008-08-16T15:18:52Z</time>
      </trkpt>
      <trkpt lat="51.51616500" lon="6.759058000">
        <ele>27.217000</ele>
        <time>2008-08-16T15:19:03Z</time>
      </trkpt>
      <trkpt lat="51.51610800" lon="6.758977000">
        <ele>26.634000</ele>
        <time>2008-08-16T15:19:07Z</time>
      </trkpt>
      <trkpt lat="51.51570200" lon="6.758852000">
        <ele>23.131000</ele>
        <time>2008-08-16T15:19:18Z</time>
      </trkpt>
      <trkpt lat="51.51537300" lon="6.758660000">
        <ele>23.029000</ele>
        <time>2008-08-16T15:19:31Z</time>
      </trkpt>
      <trkpt lat="51.51525500" lon="6.758626000">
        <ele>23.044000</ele>
        <time>2008-08-16T15:19:36Z</time>
      </trkpt>
      <trkpt lat="51.51518200" lon="6.758479000">
        <ele>23.466000</ele>
        <time>2008-08-16T15:19:41Z</time>
      </trkpt>
      <trkpt lat="51.51528000" lon="6.757907000">
        <ele>23.255000</ele>
        <time>2008-08-16T15:19:55Z</time>
      </trkpt>
      <trkpt lat="51.51544500" lon="6.757416000">
        <ele>23.402000</ele>
        <time>2008-08-16T15:20:06Z</time>
      </trkpt>
      <trkpt lat="51.51561700" lon="6.756910000">
        <ele>23.173000</ele>
        <time>2008-08-16T15:20:17Z</time>
      </trkpt>
      <trkpt lat="51.51577000" lon="6.756395000">
        <ele>23.458000</ele>
        <time>2008-08-16T15:20:27Z</time>
      </trkpt>
      <trkpt lat="51.51594500" lon="6.755817000">
        <ele>23.530000</ele>
        <time>2008-08-16T15:20:37Z</time>
      </trkpt>
      <trkpt lat="51.51610100" lon="6.755275000">
        <ele>23.250000</ele>
        <time>2008-08-16T15:20:46Z</time>
      </trkpt>
      <trkpt lat="51.51621900" lon="6.754863000">
        <ele>23.274000</ele>
        <time>2008-08-16T15:20:53Z</time>
      </trkpt>
      <trkpt lat="51.51636500" lon="6.754438000">
        <ele>23.126000</ele>
        <time>2008-08-16T15:21:00Z</time>
      </trkpt>
      <trkpt lat="51.51656200" lon="6.753860000">
        <ele>22.985000</ele>
        <time>2008-08-16T15:21:10Z</time>
      </trkpt>
      <trkpt lat="51.51673100" lon="6.753338000">
        <ele>22.818000</ele>
        <time>2008-08-16T15:21:19Z</time>
      </trkpt>
      <trkpt lat="51.51688900" lon="6.752827000">
        <ele>22.884000</ele>
        <time>2008-08-16T15:21:28Z</time>
      </trkpt>
      <trkpt lat="51.51694700" lon="6.752650000">
        <ele>22.806000</ele>
        <time>2008-08-16T15:21:31Z</time>
      </trkpt>
      <trkpt lat="51.51710400" lon="6.752187000">
        <ele>22.675000</ele>
        <time>2008-08-16T15:21:39Z</time>
      </trkpt>
      <trkpt lat="51.51729600" lon="6.751572000">
        <ele>22.507000</ele>
        <time>2008-08-16T15:21:50Z</time>
      </trkpt>
      <trkpt lat="51.51746800" lon="6.751020000">
        <ele>22.394000</ele>
        <time>2008-08-16T15:22:00Z</time>
      </trkpt>
      <trkpt lat="51.51763200" lon="6.750470000">
        <ele>21.830000</ele>
        <time>2008-08-16T15:22:10Z</time>
      </trkpt>
      <trkpt lat="51.51779100" lon="6.749963000">
        <ele>21.684000</ele>
        <time>2008-08-16T15:22:19Z</time>
      </trkpt>
      <trkpt lat="51.51787000" lon="6.749694000">
        <ele>21.715000</ele>
        <time>2008-08-16T15:22:24Z</time>
      </trkpt>
      <trkpt lat="51.51795100" lon="6.749403000">
        <ele>21.648000</ele>
        <time>2008-08-16T15:22:30Z</time>
      </trkpt>
      <trkpt lat="51.51799000" lon="6.749288000">
        <ele>21.425000</ele>
        <time>2008-08-16T15:22:32Z</time>
      </trkpt>
      <trkpt lat="51.51805500" lon="6.749087000">
        <ele>21.251000</ele>
        <time>2008-08-16T15:22:35Z</time>
      </trkpt>
      <trkpt lat="51.51812900" lon="6.748839000">
        <ele>21.215000</ele>
        <time>2008-08-16T15:22:39Z</time>
      </trkpt>
      <trkpt lat="51.51821400" lon="6.748558000">
        <ele>21.166000</ele>
        <time>2008-08-16T15:22:44Z</time>
      </trkpt>
      <trkpt lat="51.51833800" lon="6.748118000">
        <ele>20.657000</ele>
        <time>2008-08-16T15:22:51Z</time>
      </trkpt>
      <trkpt lat="51.51843200" lon="6.747808000">
        <ele>20.673000</ele>
        <time>2008-08-16T15:22:56Z</time>
      </trkpt>
      <trkpt lat="51.51849200" lon="6.747625000">
        <ele>20.738000</ele>
        <time>2008-08-16T15:22:59Z</time>
      </trkpt>
      <trkpt lat="51.51871000" lon="6.747049000">
        <ele>20.289000</ele>
        <time>2008-08-16T15:23:09Z</time>
      </trkpt>
      <trkpt lat="51.51892300" lon="6.746495000">
        <ele>19.928000</ele>
        <time>2008-08-16T15:23:18Z</time>
      </trkpt>
      <trkpt lat="51.51903500" lon="6.746149000">
        <ele>19.848000</ele>
        <time>2008-08-16T15:23:24Z</time>
      </trkpt>
      <trkpt lat="51.51912700" lon="6.745866000">
        <ele>19.423000</ele>
        <time>2008-08-16T15:23:29Z</time>
      </trkpt>
      <trkpt lat="51.51925700" lon="6.745529000">
        <ele>19.294000</ele>
        <time>2008-08-16T15:23:35Z</time>
      </trkpt>
      <trkpt lat="51.51934600" lon="6.745301000">
        <ele>19.356000</ele>
        <time>2008-08-16T15:23:39Z</time>
      </trkpt>
      <trkpt lat="51.51946700" lon="6.744917000">
        <ele>19.125000</ele>
        <time>2008-08-16T15:23:46Z</time>
      </trkpt>
      <trkpt lat="51.51967900" lon="6.744368000">
        <ele>18.864000</ele>
        <time>2008-08-16T15:23:56Z</time>
      </trkpt>
      <trkpt lat="51.51975800" lon="6.744142000">
        <ele>18.826000</ele>
        <time>2008-08-16T15:24:00Z</time>
      </trkpt>
      <trkpt lat="51.51991900" lon="6.743727000">
        <ele>18.706000</ele>
        <time>2008-08-16T15:24:08Z</time>
      </trkpt>
      <trkpt lat="51.52007800" lon="6.743173000">
        <ele>18.206000</ele>
        <time>2008-08-16T15:24:18Z</time>
      </trkpt>
      <trkpt lat="51.52025500" lon="6.742586000">
        <ele>17.651000</ele>
        <time>2008-08-16T15:24:28Z</time>
      </trkpt>
      <trkpt lat="51.52035800" lon="6.742191000">
        <ele>16.822000</ele>
        <time>2008-08-16T15:24:36Z</time>
      </trkpt>
      <trkpt lat="51.52034700" lon="6.742110000">
        <ele>16.648000</ele>
        <time>2008-08-16T15:24:49Z</time>
      </trkpt>
      <trkpt lat="51.52034800" lon="6.742084000">
        <ele>16.475000</ele>
        <time>2008-08-16T15:25:26Z</time>
      </trkpt>
      <trkpt lat="51.52038900" lon="6.741906000">
        <ele>16.781000</ele>
        <time>2008-08-16T15:25:31Z</time>
      </trkpt>
      <trkpt lat="51.52034600" lon="6.741817000">
        <ele>16.961000</ele>
        <time>2008-08-16T15:25:34Z</time>
      </trkpt>
      <trkpt lat="51.52034900" lon="6.741557000">
        <ele>17.087000</ele>
        <time>2008-08-16T15:25:40Z</time>
      </trkpt>
      <trkpt lat="51.52033600" lon="6.740850000">
        <ele>16.838000</ele>
        <time>2008-08-16T15:25:52Z</time>
      </trkpt>
      <trkpt lat="51.52038100" lon="6.740255000">
        <ele>17.053000</ele>
        <time>2008-08-16T15:26:02Z</time>
      </trkpt>
      <trkpt lat="51.52049900" lon="6.739712000">
        <ele>17.288000</ele>
        <time>2008-08-16T15:26:12Z</time>
      </trkpt>
      <trkpt lat="51.52064900" lon="6.739154000">
        <ele>17.814000</ele>
        <time>2008-08-16T15:26:23Z</time>
      </trkpt>
      <trkpt lat="51.52074900" lon="6.738539000">
        <ele>17.675000</ele>
        <time>2008-08-16T15:26:34Z</time>
      </trkpt>
      <trkpt lat="51.52068800" lon="6.738049000">
        <ele>18.072000</ele>
        <time>2008-08-16T15:26:47Z</time>
      </trkpt>
      <trkpt lat="51.52066600" lon="6.738035000">
        <ele>18.307000</ele>
        <time>2008-08-16T15:26:48Z</time>
      </trkpt>
      <trkpt lat="51.52048200" lon="6.738112000">
        <ele>18.211000</ele>
        <time>2008-08-16T15:26:55Z</time>
      </trkpt>
      <trkpt lat="51.52026100" lon="6.737587000">
        <ele>18.662000</ele>
        <time>2008-08-16T15:27:10Z</time>
      </trkpt>
      <trkpt lat="51.52007800" lon="6.737034000">
        <ele>19.204000</ele>
        <time>2008-08-16T15:27:23Z</time>
      </trkpt>
      <trkpt lat="51.51990300" lon="6.736499000">
        <ele>19.792000</ele>
        <time>2008-08-16T15:27:35Z</time>
      </trkpt>
      <trkpt lat="51.51972000" lon="6.735971000">
        <ele>20.720000</ele>
        <time>2008-08-16T15:27:47Z</time>
      </trkpt>
      <trkpt lat="51.51958800" lon="6.735403000">
        <ele>21.394000</ele>
        <time>2008-08-16T15:27:59Z</time>
      </trkpt>
      <trkpt lat="51.51948900" lon="6.734809000">
        <ele>22.305000</ele>
        <time>2008-08-16T15:28:11Z</time>
      </trkpt>
      <trkpt lat="51.51937600" lon="6.734266000">
        <ele>22.709000</ele>
        <time>2008-08-16T15:28:24Z</time>
      </trkpt>
      <trkpt lat="51.51932900" lon="6.734206000">
        <ele>22.696000</ele>
        <time>2008-08-16T15:28:27Z</time>
      </trkpt>
      <trkpt lat="51.51920600" lon="6.734258000">
        <ele>22.652000</ele>
        <time>2008-08-16T15:28:33Z</time>
      </trkpt>
      <trkpt lat="51.51916400" lon="6.734318000">
        <ele>22.713000</ele>
        <time>2008-08-16T15:28:37Z</time>
      </trkpt>
      <trkpt lat="51.51939300" lon="6.734125000">
        <ele>22.415000</ele>
        <time>2008-08-16T15:28:52Z</time>
      </trkpt>
      <trkpt lat="51.51964000" lon="6.733603000">
        <ele>22.473000</ele>
        <time>2008-08-16T15:29:04Z</time>
      </trkpt>
      <trkpt lat="51.51985700" lon="6.733094000">
        <ele>22.607000</ele>
        <time>2008-08-16T15:29:15Z</time>
      </trkpt>
      <trkpt lat="51.51994700" lon="6.733103000">
        <ele>22.856000</ele>
        <time>2008-08-16T15:29:37Z</time>
      </trkpt>
      <trkpt lat="51.51994400" lon="6.733054000">
        <ele>23.288000</ele>
        <time>2008-08-16T15:32:33Z</time>
      </trkpt>
      <trkpt lat="51.51994100" lon="6.733038000">
        <ele>23.399000</ele>
        <time>2008-08-16T15:32:34Z</time>
      </trkpt>
      <trkpt lat="51.51997800" lon="6.732772000">
        <ele>23.525000</ele>
        <time>2008-08-16T15:32:42Z</time>
      </trkpt>
      <trkpt lat="51.52017300" lon="6.732266000">
        <ele>23.880000</ele>
        <time>2008-08-16T15:32:57Z</time>
      </trkpt>
      <trkpt lat="51.52035600" lon="6.731767000">
        <ele>24.656000</ele>
        <time>2008-08-16T15:33:10Z</time>
      </trkpt>
      <trkpt lat="51.52054600" lon="6.731255000">
        <ele>25.016000</ele>
        <time>2008-08-16T15:33:22Z</time>
      </trkpt>
      <trkpt lat="51.52071300" lon="6.730749000">
        <ele>25.139000</ele>
        <time>2008-08-16T15:33:33Z</time>
      </trkpt>
      <trkpt lat="51.52089800" lon="6.730228000">
        <ele>24.706000</ele>
        <time>2008-08-16T15:33:43Z</time>
      </trkpt>
      <trkpt lat="51.52111400" lon="6.729668000">
        <ele>23.883000</ele>
        <time>2008-08-16T15:33:53Z</time>
      </trkpt>
      <trkpt lat="51.52129300" lon="6.729162000">
        <ele>23.588000</ele>
        <time>2008-08-16T15:34:02Z</time>
      </trkpt>
      <trkpt lat="51.52152300" lon="6.728645000">
        <ele>23.353000</ele>
        <time>2008-08-16T15:34:12Z</time>
      </trkpt>
      <trkpt lat="51.52180700" lon="6.728221000">
        <ele>23.748000</ele>
        <time>2008-08-16T15:34:22Z</time>
      </trkpt>
      <trkpt lat="51.52211200" lon="6.727884000">
        <ele>23.726000</ele>
        <time>2008-08-16T15:34:32Z</time>
      </trkpt>
      <trkpt lat="51.52243800" lon="6.727544000">
        <ele>24.635000</ele>
        <time>2008-08-16T15:34:43Z</time>
      </trkpt>
      <trkpt lat="51.52276200" lon="6.727210000">
        <ele>24.835000</ele>
        <time>2008-08-16T15:34:54Z</time>
      </trkpt>
      <trkpt lat="51.52307300" lon="6.726873000">
        <ele>24.751000</ele>
        <time>2008-08-16T15:35:05Z</time>
      </trkpt>
      <trkpt lat="51.52339900" lon="6.726530000">
        <ele>24.813000</ele>
        <time>2008-08-16T15:35:15Z</time>
      </trkpt>
      <trkpt lat="51.52368900" lon="6.726213000">
        <ele>24.677000</ele>
        <time>2008-08-16T15:35:25Z</time>
      </trkpt>
      <trkpt lat="51.52398300" lon="6.725871000">
        <ele>24.919000</ele>
        <time>2008-08-16T15:35:35Z</time>
      </trkpt>
      <trkpt lat="51.52428900" lon="6.725507000">
        <ele>24.646000</ele>
        <time>2008-08-16T15:35:48Z</time>
      </trkpt>
      <trkpt lat="51.52460000" lon="6.725140000">
        <ele>24.599000</ele>
        <time>2008-08-16T15:35:59Z</time>
      </trkpt>
      <trkpt lat="51.52490600" lon="6.724830000">
        <ele>24.633000</ele>
        <time>2008-08-16T15:36:09Z</time>
      </trkpt>
      <trkpt lat="51.52514400" lon="6.724762000">
        <ele>24.654000</ele>
        <time>2008-08-16T15:36:16Z</time>
      </trkpt>
      <trkpt lat="51.52530400" lon="6.724509000">
        <ele>24.512000</ele>
        <time>2008-08-16T15:36:25Z</time>
      </trkpt>
      <trkpt lat="51.52531200" lon="6.724502000">
        <ele>24.575000</ele>
        <time>2008-08-16T15:36:33Z</time>
      </trkpt>
      <trkpt lat="51.52531900" lon="6.724494000">
        <ele>24.516000</ele>
        <time>2008-08-16T15:36:39Z</time>
      </trkpt>
      <trkpt lat="51.52533300" lon="6.724492000">
        <ele>24.467000</ele>
        <time>2008-08-16T15:36:40Z</time>
      </trkpt>
      <trkpt lat="51.52549600" lon="6.724369000">
        <ele>24.675000</ele>
        <time>2008-08-16T15:36:47Z</time>
      </trkpt>
      <trkpt lat="51.52549900" lon="6.724198000">
        <ele>24.663000</ele>
        <time>2008-08-16T15:36:53Z</time>
      </trkpt>
      <trkpt lat="51.52560300" lon="6.723638000">
        <ele>25.074000</ele>
        <time>2008-08-16T15:37:05Z</time>
      </trkpt>
      <trkpt lat="51.52550500" lon="6.723013000">
        <ele>25.274000</ele>
        <time>2008-08-16T15:37:17Z</time>
      </trkpt>
      <trkpt lat="51.52552300" lon="6.722417000">
        <ele>25.251000</ele>
        <time>2008-08-16T15:37:28Z</time>
      </trkpt>
      <trkpt lat="51.52555000" lon="6.721811000">
        <ele>25.447000</ele>
        <time>2008-08-16T15:37:39Z</time>
      </trkpt>
      <trkpt lat="51.52561200" lon="6.721232000">
        <ele>25.713000</ele>
        <time>2008-08-16T15:37:49Z</time>
      </trkpt>
      <trkpt lat="51.52565100" lon="6.720672000">
        <ele>25.772000</ele>
        <time>2008-08-16T15:38:01Z</time>
      </trkpt>
      <trkpt lat="51.52570200" lon="6.720086000">
        <ele>26.248000</ele>
        <time>2008-08-16T15:38:12Z</time>
      </trkpt>
      <trkpt lat="51.52569200" lon="6.719476000">
        <ele>26.527000</ele>
        <time>2008-08-16T15:38:23Z</time>
      </trkpt>
      <trkpt lat="51.52566700" lon="6.718863000">
        <ele>26.520000</ele>
        <time>2008-08-16T15:38:34Z</time>
      </trkpt>
      <trkpt lat="51.52562000" lon="6.718282000">
        <ele>26.754000</ele>
        <time>2008-08-16T15:38:44Z</time>
      </trkpt>
      <trkpt lat="51.52557600" lon="6.717690000">
        <ele>27.027000</ele>
        <time>2008-08-16T15:38:54Z</time>
      </trkpt>
      <trkpt lat="51.52555700" lon="6.717068000">
        <ele>27.242000</ele>
        <time>2008-08-16T15:39:04Z</time>
      </trkpt>
      <trkpt lat="51.52551700" lon="6.716441000">
        <ele>27.210000</ele>
        <time>2008-08-16T15:39:14Z</time>
      </trkpt>
      <trkpt lat="51.52549500" lon="6.715823000">
        <ele>27.816000</ele>
        <time>2008-08-16T15:39:24Z</time>
      </trkpt>
      <trkpt lat="51.52553500" lon="6.715194000">
        <ele>27.796000</ele>
        <time>2008-08-16T15:39:34Z</time>
      </trkpt>
      <trkpt lat="51.52560400" lon="6.714578000">
        <ele>27.981000</ele>
        <time>2008-08-16T15:39:44Z</time>
      </trkpt>
      <trkpt lat="51.52571200" lon="6.714192000">
        <ele>28.206000</ele>
        <time>2008-08-16T15:39:51Z</time>
      </trkpt>
      <trkpt lat="51.52587600" lon="6.713623000">
        <ele>28.665000</ele>
        <time>2008-08-16T15:40:02Z</time>
      </trkpt>
      <trkpt lat="51.52589900" lon="6.712975000">
        <ele>29.050000</ele>
        <time>2008-08-16T15:40:13Z</time>
      </trkpt>
      <trkpt lat="51.52587200" lon="6.712390000">
        <ele>29.106000</ele>
        <time>2008-08-16T15:40:23Z</time>
      </trkpt>
      <trkpt lat="51.52585000" lon="6.711771000">
        <ele>29.509000</ele>
        <time>2008-08-16T15:40:33Z</time>
      </trkpt>
      <trkpt lat="51.52581800" lon="6.711179000">
        <ele>28.834000</ele>
        <time>2008-08-16T15:40:42Z</time>
      </trkpt>
      <trkpt lat="51.52578000" lon="6.710573000">
        <ele>28.473000</ele>
        <time>2008-08-16T15:40:51Z</time>
      </trkpt>
      <trkpt lat="51.52573800" lon="6.709992000">
        <ele>28.442000</ele>
        <time>2008-08-16T15:41:00Z</time>
      </trkpt>
      <trkpt lat="51.52562400" lon="6.709409000">
        <ele>28.439000</ele>
        <time>2008-08-16T15:41:10Z</time>
      </trkpt>
      <trkpt lat="51.52542700" lon="6.708879000">
        <ele>28.952000</ele>
        <time>2008-08-16T15:41:20Z</time>
      </trkpt>
      <trkpt lat="51.52523100" lon="6.708360000">
        <ele>28.828000</ele>
        <time>2008-08-16T15:41:30Z</time>
      </trkpt>
      <trkpt lat="51.52512500" lon="6.707788000">
        <ele>29.133000</ele>
        <time>2008-08-16T15:41:40Z</time>
      </trkpt>
      <trkpt lat="51.52516900" lon="6.707241000">
        <ele>29.334000</ele>
        <time>2008-08-16T15:41:50Z</time>
      </trkpt>
      <trkpt lat="51.52537100" lon="6.706703000">
        <ele>29.397000</ele>
        <time>2008-08-16T15:42:01Z</time>
      </trkpt>
      <trkpt lat="51.52568700" lon="6.706318000">
        <ele>29.106000</ele>
        <time>2008-08-16T15:42:12Z</time>
      </trkpt>
      <trkpt lat="51.52598300" lon="6.705959000">
        <ele>28.844000</ele>
        <time>2008-08-16T15:42:22Z</time>
      </trkpt>
      <trkpt lat="51.52626900" lon="6.705565000">
        <ele>28.355000</ele>
        <time>2008-08-16T15:42:32Z</time>
      </trkpt>
      <trkpt lat="51.52657300" lon="6.705194000">
        <ele>28.762000</ele>
        <time>2008-08-16T15:42:43Z</time>
      </trkpt>
      <trkpt lat="51.52685400" lon="6.704818000">
        <ele>29.092000</ele>
        <time>2008-08-16T15:42:54Z</time>
      </trkpt>
      <trkpt lat="51.52706300" lon="6.704359000">
        <ele>29.624000</ele>
        <time>2008-08-16T15:43:05Z</time>
      </trkpt>
      <trkpt lat="51.52712200" lon="6.703782000">
        <ele>28.936000</ele>
        <time>2008-08-16T15:43:16Z</time>
      </trkpt>
      <trkpt lat="51.52726700" lon="6.703214000">
        <ele>28.017000</ele>
        <time>2008-08-16T15:43:26Z</time>
      </trkpt>
      <trkpt lat="51.52741300" lon="6.702753000">
        <ele>25.906000</ele>
        <time>2008-08-16T15:43:32Z</time>
      </trkpt>
      <trkpt lat="51.52748300" lon="6.702009000">
        <ele>23.759000</ele>
        <time>2008-08-16T15:43:39Z</time>
      </trkpt>
      <trkpt lat="51.52744300" lon="6.701589000">
        <ele>22.730000</ele>
        <time>2008-08-16T15:43:43Z</time>
      </trkpt>
      <trkpt lat="51.52723800" lon="6.700957000">
        <ele>21.926000</ele>
        <time>2008-08-16T15:43:50Z</time>
      </trkpt>
      <trkpt lat="51.52719700" lon="6.700881000">
        <ele>21.800000</ele>
        <time>2008-08-16T15:43:51Z</time>
      </trkpt>
      <trkpt lat="51.52686000" lon="6.700457000">
        <ele>21.582000</ele>
        <time>2008-08-16T15:43:58Z</time>
      </trkpt>
      <trkpt lat="51.52660200" lon="6.700111000">
        <ele>21.066000</ele>
        <time>2008-08-16T15:44:09Z</time>
      </trkpt>
      <trkpt lat="51.52656300" lon="6.699990000">
        <ele>21.285000</ele>
        <time>2008-08-16T15:44:15Z</time>
      </trkpt>
      <trkpt lat="51.52654800" lon="6.699933000">
        <ele>20.923000</ele>
        <time>2008-08-16T15:44:23Z</time>
      </trkpt>
      <trkpt lat="51.52654400" lon="6.699939000">
        <ele>21.010000</ele>
        <time>2008-08-16T15:44:34Z</time>
      </trkpt>
      <trkpt lat="51.52653300" lon="6.699954000">
        <ele>20.851000</ele>
        <time>2008-08-16T15:47:27Z</time>
      </trkpt>
      <trkpt lat="51.52648300" lon="6.699932000">
        <ele>20.879000</ele>
        <time>2008-08-16T15:47:43Z</time>
      </trkpt>
      <trkpt lat="51.52648200" lon="6.699934000">
        <ele>20.949000</ele>
        <time>2008-08-16T15:55:50Z</time>
      </trkpt>
      <trkpt lat="51.52635200" lon="6.699882000">
        <ele>20.392000</ele>
        <time>2008-08-16T15:56:16Z</time>
      </trkpt>
      <trkpt lat="51.52634500" lon="6.699879000">
        <ele>20.105000</ele>
        <time>2008-08-16T15:56:19Z</time>
      </trkpt>
      <trkpt lat="51.52632600" lon="6.699849000">
        <ele>20.269000</ele>
        <time>2008-08-16T15:56:24Z</time>
      </trkpt>
      <trkpt lat="51.52630800" lon="6.699476000">
        <ele>20.289000</ele>
        <time>2008-08-16T15:56:44Z</time>
      </trkpt>
      <trkpt lat="51.52631300" lon="6.699463000">
        <ele>20.271000</ele>
        <time>2008-08-16T15:56:55Z</time>
      </trkpt>
      <trkpt lat="51.52622000" lon="6.699453000">
        <ele>20.081000</ele>
        <time>2008-08-16T15:59:27Z</time>
      </trkpt>
      <trkpt lat="51.52587600" lon="6.699663000">
        <ele>19.974000</ele>
        <time>2008-08-16T16:00:03Z</time>
      </trkpt>
      <trkpt lat="51.52572900" lon="6.699641000">
        <ele>19.925000</ele>
        <time>2008-08-16T16:00:20Z</time>
      </trkpt>
      <trkpt lat="51.52547000" lon="6.699232000">
        <ele>20.268000</ele>
        <time>2008-08-16T16:01:03Z</time>
      </trkpt>
      <trkpt lat="51.52523000" lon="6.698819000">
        <ele>20.367000</ele>
        <time>2008-08-16T16:01:57Z</time>
      </trkpt>
      <trkpt lat="51.52493400" lon="6.698477000">
        <ele>20.578000</ele>
        <time>2008-08-16T16:02:32Z</time>
      </trkpt>
      <trkpt lat="51.52464900" lon="6.698101000">
        <ele>20.446000</ele>
        <time>2008-08-16T16:03:01Z</time>
      </trkpt>
      <trkpt lat="51.52436200" lon="6.697743000">
        <ele>20.628000</ele>
        <time>2008-08-16T16:03:29Z</time>
      </trkpt>
      <trkpt lat="51.52405000" lon="6.697441000">
        <ele>20.452000</ele>
        <time>2008-08-16T16:04:00Z</time>
      </trkpt>
      <trkpt lat="51.52371400" lon="6.697225000">
        <ele>20.820000</ele>
        <time>2008-08-16T16:04:41Z</time>
      </trkpt>
      <trkpt lat="51.52359700" lon="6.697137000">
        <ele>20.784000</ele>
        <time>2008-08-16T16:05:45Z</time>
      </trkpt>
      <trkpt lat="51.52356700" lon="6.697128000">
        <ele>20.761000</ele>
        <time>2008-08-16T16:05:48Z</time>
      </trkpt>
      <trkpt lat="51.52321800" lon="6.696902000">
        <ele>23.571000</ele>
        <time>2008-08-16T16:06:20Z</time>
      </trkpt>
      <trkpt lat="51.52286100" lon="6.696602000">
        <ele>23.735000</ele>
        <time>2008-08-16T16:06:36Z</time>
      </trkpt>
      <trkpt lat="51.52263000" lon="6.696173000">
        <ele>24.271000</ele>
        <time>2008-08-16T16:06:48Z</time>
      </trkpt>
      <trkpt lat="51.52278600" lon="6.695628000">
        <ele>24.674000</ele>
        <time>2008-08-16T16:07:00Z</time>
      </trkpt>
      <trkpt lat="51.52298800" lon="6.695071000">
        <ele>24.887000</ele>
        <time>2008-08-16T16:07:09Z</time>
      </trkpt>
      <trkpt lat="51.52316400" lon="6.694503000">
        <ele>24.708000</ele>
        <time>2008-08-16T16:07:18Z</time>
      </trkpt>
      <trkpt lat="51.52335900" lon="6.693946000">
        <ele>24.612000</ele>
        <time>2008-08-16T16:07:27Z</time>
      </trkpt>
      <trkpt lat="51.52352000" lon="6.693400000">
        <ele>24.404000</ele>
        <time>2008-08-16T16:07:36Z</time>
      </trkpt>
      <trkpt lat="51.52364700" lon="6.692845000">
        <ele>24.636000</ele>
        <time>2008-08-16T16:07:45Z</time>
      </trkpt>
      <trkpt lat="51.52377000" lon="6.692261000">
        <ele>24.797000</ele>
        <time>2008-08-16T16:07:54Z</time>
      </trkpt>
      <trkpt lat="51.52388700" lon="6.691697000">
        <ele>25.018000</ele>
        <time>2008-08-16T16:08:03Z</time>
      </trkpt>
      <trkpt lat="51.52400100" lon="6.691135000">
        <ele>25.345000</ele>
        <time>2008-08-16T16:08:12Z</time>
      </trkpt>
      <trkpt lat="51.52428900" lon="6.690763000">
        <ele>26.165000</ele>
        <time>2008-08-16T16:08:22Z</time>
      </trkpt>
      <trkpt lat="51.52435200" lon="6.690284000">
        <ele>27.651000</ele>
        <time>2008-08-16T16:08:33Z</time>
      </trkpt>
      <trkpt lat="51.52420700" lon="6.689814000">
        <ele>28.070000</ele>
        <time>2008-08-16T16:08:48Z</time>
      </trkpt>
      <trkpt lat="51.52421300" lon="6.689776000">
        <ele>27.731000</ele>
        <time>2008-08-16T16:08:50Z</time>
      </trkpt>
      <trkpt lat="51.52421900" lon="6.689744000">
        <ele>28.176000</ele>
        <time>2008-08-16T16:08:57Z</time>
      </trkpt>
      <trkpt lat="51.52422200" lon="6.689734000">
        <ele>27.992000</ele>
        <time>2008-08-16T16:09:07Z</time>
      </trkpt>
      <trkpt lat="51.52418800" lon="6.689742000">
        <ele>29.665000</ele>
        <time>2008-08-16T16:17:47Z</time>
      </trkpt>
      <trkpt lat="51.52416900" lon="6.689707000">
        <ele>29.418000</ele>
        <time>2008-08-16T16:17:55Z</time>
      </trkpt>
      <trkpt lat="51.52401500" lon="6.689190000">
        <ele>29.646000</ele>
        <time>2008-08-16T16:18:14Z</time>
      </trkpt>
      <trkpt lat="51.52387900" lon="6.688699000">
        <ele>30.139000</ele>
        <time>2008-08-16T16:18:29Z</time>
      </trkpt>
      <trkpt lat="51.52372500" lon="6.688152000">
        <ele>30.183000</ele>
        <time>2008-08-16T16:18:42Z</time>
      </trkpt>
      <trkpt lat="51.52358300" lon="6.687594000">
        <ele>30.100000</ele>
        <time>2008-08-16T16:18:55Z</time>
      </trkpt>
      <trkpt lat="51.52342100" lon="6.687078000">
        <ele>30.133000</ele>
        <time>2008-08-16T16:19:09Z</time>
      </trkpt>
      <trkpt lat="51.52323400" lon="6.686552000">
        <ele>30.096000</ele>
        <time>2008-08-16T16:19:23Z</time>
      </trkpt>
      <trkpt lat="51.52303500" lon="6.686028000">
        <ele>30.080000</ele>
        <time>2008-08-16T16:19:36Z</time>
      </trkpt>
      <trkpt lat="51.52287500" lon="6.685514000">
        <ele>30.332000</ele>
        <time>2008-08-16T16:19:49Z</time>
      </trkpt>
      <trkpt lat="51.52268100" lon="6.685012000">
        <ele>30.429000</ele>
        <time>2008-08-16T16:20:03Z</time>
      </trkpt>
      <trkpt lat="51.52253400" lon="6.684421000">
        <ele>30.320000</ele>
        <time>2008-08-16T16:20:17Z</time>
      </trkpt>
      <trkpt lat="51.52248200" lon="6.683818000">
        <ele>30.468000</ele>
        <time>2008-08-16T16:20:30Z</time>
      </trkpt>
      <trkpt lat="51.52261700" lon="6.683298000">
        <ele>30.217000</ele>
        <time>2008-08-16T16:20:40Z</time>
      </trkpt>
      <trkpt lat="51.52285500" lon="6.682803000">
        <ele>29.875000</ele>
        <time>2008-08-16T16:20:49Z</time>
      </trkpt>
      <trkpt lat="51.52304300" lon="6.682304000">
        <ele>29.458000</ele>
        <time>2008-08-16T16:20:57Z</time>
      </trkpt>
      <trkpt lat="51.52310500" lon="6.682030000">
        <ele>29.291000</ele>
        <time>2008-08-16T16:21:01Z</time>
      </trkpt>
      <trkpt lat="51.52314200" lon="6.681898000">
        <ele>29.309000</ele>
        <time>2008-08-16T16:21:03Z</time>
      </trkpt>
      <trkpt lat="51.52315700" lon="6.681552000">
        <ele>28.945000</ele>
        <time>2008-08-16T16:21:08Z</time>
      </trkpt>
      <trkpt lat="51.52301700" lon="6.680913000">
        <ele>28.822000</ele>
        <time>2008-08-16T16:21:18Z</time>
      </trkpt>
      <trkpt lat="51.52297500" lon="6.680801000">
        <ele>28.466000</ele>
        <time>2008-08-16T16:21:20Z</time>
      </trkpt>
      <trkpt lat="51.52283300" lon="6.680760000">
        <ele>28.984000</ele>
        <time>2008-08-16T16:21:24Z</time>
      </trkpt>
      <trkpt lat="51.52241200" lon="6.680910000">
        <ele>29.059000</ele>
        <time>2008-08-16T16:21:35Z</time>
      </trkpt>
      <trkpt lat="51.52203400" lon="6.681018000">
        <ele>29.162000</ele>
        <time>2008-08-16T16:21:44Z</time>
      </trkpt>
      <trkpt lat="51.52168300" lon="6.681105000">
        <ele>29.775000</ele>
        <time>2008-08-16T16:21:53Z</time>
      </trkpt>
      <trkpt lat="51.52160100" lon="6.681102000">
        <ele>29.928000</ele>
        <time>2008-08-16T16:21:55Z</time>
      </trkpt>
      <trkpt lat="51.52126100" lon="6.680866000">
        <ele>30.361000</ele>
        <time>2008-08-16T16:22:05Z</time>
      </trkpt>
      <trkpt lat="51.52106300" lon="6.680287000">
        <ele>30.411000</ele>
        <time>2008-08-16T16:22:15Z</time>
      </trkpt>
      <trkpt lat="51.52089200" lon="6.679740000">
        <ele>30.062000</ele>
        <time>2008-08-16T16:22:24Z</time>
      </trkpt>
      <trkpt lat="51.52072200" lon="6.679181000">
        <ele>29.941000</ele>
        <time>2008-08-16T16:22:33Z</time>
      </trkpt>
      <trkpt lat="51.52054700" lon="6.678615000">
        <ele>29.834000</ele>
        <time>2008-08-16T16:22:42Z</time>
      </trkpt>
      <trkpt lat="51.52036700" lon="6.678040000">
        <ele>29.452000</ele>
        <time>2008-08-16T16:22:51Z</time>
      </trkpt>
      <trkpt lat="51.52019100" lon="6.677479000">
        <ele>28.878000</ele>
        <time>2008-08-16T16:22:59Z</time>
      </trkpt>
      <trkpt lat="51.52001700" lon="6.676911000">
        <ele>28.212000</ele>
        <time>2008-08-16T16:23:07Z</time>
      </trkpt>
      <trkpt lat="51.51982800" lon="6.676334000">
        <ele>27.324000</ele>
        <time>2008-08-16T16:23:15Z</time>
      </trkpt>
      <trkpt lat="51.51963700" lon="6.675776000">
        <ele>26.753000</ele>
        <time>2008-08-16T16:23:23Z</time>
      </trkpt>
      <trkpt lat="51.51943900" lon="6.675243000">
        <ele>26.890000</ele>
        <time>2008-08-16T16:23:31Z</time>
      </trkpt>
      <trkpt lat="51.51921600" lon="6.674704000">
        <ele>26.309000</ele>
        <time>2008-08-16T16:23:39Z</time>
      </trkpt>
      <trkpt lat="51.51899300" lon="6.674174000">
        <ele>26.255000</ele>
        <time>2008-08-16T16:23:47Z</time>
      </trkpt>
      <trkpt lat="51.51876500" lon="6.673681000">
        <ele>26.196000</ele>
        <time>2008-08-16T16:23:55Z</time>
      </trkpt>
      <trkpt lat="51.51852100" lon="6.673166000">
        <ele>26.658000</ele>
        <time>2008-08-16T16:24:04Z</time>
      </trkpt>
      <trkpt lat="51.51829200" lon="6.672702000">
        <ele>27.092000</ele>
        <time>2008-08-16T16:24:13Z</time>
      </trkpt>
      <trkpt lat="51.51802200" lon="6.672287000">
        <ele>28.136000</ele>
        <time>2008-08-16T16:24:23Z</time>
      </trkpt>
      <trkpt lat="51.51778800" lon="6.671847000">
        <ele>29.326000</ele>
        <time>2008-08-16T16:24:34Z</time>
      </trkpt>
      <trkpt lat="51.51751500" lon="6.671414000">
        <ele>30.147000</ele>
        <time>2008-08-16T16:24:46Z</time>
      </trkpt>
      <trkpt lat="51.51724200" lon="6.670985000">
        <ele>31.115000</ele>
        <time>2008-08-16T16:24:58Z</time>
      </trkpt>
      <trkpt lat="51.51695500" lon="6.670550000">
        <ele>31.394000</ele>
        <time>2008-08-16T16:25:10Z</time>
      </trkpt>
      <trkpt lat="51.51669200" lon="6.670145000">
        <ele>31.862000</ele>
        <time>2008-08-16T16:25:21Z</time>
      </trkpt>
      <trkpt lat="51.51642700" lon="6.669751000">
        <ele>32.241000</ele>
        <time>2008-08-16T16:25:32Z</time>
      </trkpt>
      <trkpt lat="51.51615700" lon="6.669357000">
        <ele>32.411000</ele>
        <time>2008-08-16T16:25:43Z</time>
      </trkpt>
      <trkpt lat="51.51587800" lon="6.668946000">
        <ele>32.415000</ele>
        <time>2008-08-16T16:25:54Z</time>
      </trkpt>
      <trkpt lat="51.51557900" lon="6.668545000">
        <ele>32.629000</ele>
        <time>2008-08-16T16:26:05Z</time>
      </trkpt>
      <trkpt lat="51.51528900" lon="6.668124000">
        <ele>32.834000</ele>
        <time>2008-08-16T16:26:16Z</time>
      </trkpt>
      <trkpt lat="51.51506100" lon="6.667632000">
        <ele>32.838000</ele>
        <time>2008-08-16T16:26:27Z</time>
      </trkpt>
      <trkpt lat="51.51478600" lon="6.667225000">
        <ele>32.827000</ele>
        <time>2008-08-16T16:26:37Z</time>
      </trkpt>
      <trkpt lat="51.51472100" lon="6.667146000">
        <ele>32.987000</ele>
        <time>2008-08-16T16:26:39Z</time>
      </trkpt>
      <trkpt lat="51.51441900" lon="6.666658000">
        <ele>32.944000</ele>
        <time>2008-08-16T16:26:50Z</time>
      </trkpt>
      <trkpt lat="51.51417200" lon="6.666155000">
        <ele>32.318000</ele>
        <time>2008-08-16T16:26:59Z</time>
      </trkpt>
      <trkpt lat="51.51396300" lon="6.665671000">
        <ele>31.414000</ele>
        <time>2008-08-16T16:27:07Z</time>
      </trkpt>
      <trkpt lat="51.51373200" lon="6.665182000">
        <ele>30.695000</ele>
        <time>2008-08-16T16:27:15Z</time>
      </trkpt>
      <trkpt lat="51.51350300" lon="6.664706000">
        <ele>29.772000</ele>
        <time>2008-08-16T16:27:23Z</time>
      </trkpt>
      <trkpt lat="51.51328400" lon="6.664247000">
        <ele>29.174000</ele>
        <time>2008-08-16T16:27:31Z</time>
      </trkpt>
      <trkpt lat="51.51305600" lon="6.663777000">
        <ele>29.232000</ele>
        <time>2008-08-16T16:27:40Z</time>
      </trkpt>
      <trkpt lat="51.51282400" lon="6.663254000">
        <ele>29.332000</ele>
        <time>2008-08-16T16:27:49Z</time>
      </trkpt>
      <trkpt lat="51.51270800" lon="6.662942000">
        <ele>29.457000</ele>
        <time>2008-08-16T16:27:54Z</time>
      </trkpt>
      <trkpt lat="51.51245700" lon="6.662423000">
        <ele>29.194000</ele>
        <time>2008-08-16T16:28:04Z</time>
      </trkpt>
      <trkpt lat="51.51232400" lon="6.662172000">
        <ele>29.457000</ele>
        <time>2008-08-16T16:28:09Z</time>
      </trkpt>
      <trkpt lat="51.51206800" lon="6.661638000">
        <ele>28.997000</ele>
        <time>2008-08-16T16:28:19Z</time>
      </trkpt>
      <trkpt lat="51.51183100" lon="6.661184000">
        <ele>28.826000</ele>
        <time>2008-08-16T16:28:28Z</time>
      </trkpt>
      <trkpt lat="51.51161400" lon="6.660742000">
        <ele>28.402000</ele>
        <time>2008-08-16T16:28:36Z</time>
      </trkpt>
      <trkpt lat="51.51140200" lon="6.660295000">
        <ele>28.356000</ele>
        <time>2008-08-16T16:28:44Z</time>
      </trkpt>
      <trkpt lat="51.51116300" lon="6.659777000">
        <ele>28.416000</ele>
        <time>2008-08-16T16:28:53Z</time>
      </trkpt>
      <trkpt lat="51.51094500" lon="6.659285000">
        <ele>28.217000</ele>
        <time>2008-08-16T16:29:01Z</time>
      </trkpt>
      <trkpt lat="51.51076000" lon="6.658767000">
        <ele>28.072000</ele>
        <time>2008-08-16T16:29:11Z</time>
      </trkpt>
      <trkpt lat="51.51060800" lon="6.658720000">
        <ele>28.442000</ele>
        <time>2008-08-16T16:29:18Z</time>
      </trkpt>
      <trkpt lat="51.51043300" lon="6.658154000">
        <ele>28.307000</ele>
        <time>2008-08-16T16:29:29Z</time>
      </trkpt>
      <trkpt lat="51.51027000" lon="6.657594000">
        <ele>27.921000</ele>
        <time>2008-08-16T16:29:38Z</time>
      </trkpt>
      <trkpt lat="51.51011100" lon="6.657005000">
        <ele>27.957000</ele>
        <time>2008-08-16T16:29:47Z</time>
      </trkpt>
      <trkpt lat="51.50997400" lon="6.656412000">
        <ele>28.059000</ele>
        <time>2008-08-16T16:29:56Z</time>
      </trkpt>
      <trkpt lat="51.50987500" lon="6.655830000">
        <ele>27.773000</ele>
        <time>2008-08-16T16:30:05Z</time>
      </trkpt>
      <trkpt lat="51.50980400" lon="6.655241000">
        <ele>27.889000</ele>
        <time>2008-08-16T16:30:14Z</time>
      </trkpt>
      <trkpt lat="51.50977500" lon="6.654645000">
        <ele>27.911000</ele>
        <time>2008-08-16T16:30:23Z</time>
      </trkpt>
      <trkpt lat="51.50977200" lon="6.654017000">
        <ele>28.022000</ele>
        <time>2008-08-16T16:30:33Z</time>
      </trkpt>
      <trkpt lat="51.50978500" lon="6.653392000">
        <ele>28.065000</ele>
        <time>2008-08-16T16:30:43Z</time>
      </trkpt>
      <trkpt lat="51.50977400" lon="6.652766000">
        <ele>28.077000</ele>
        <time>2008-08-16T16:30:53Z</time>
      </trkpt>
      <trkpt lat="51.50974600" lon="6.652148000">
        <ele>28.113000</ele>
        <time>2008-08-16T16:31:03Z</time>
      </trkpt>
      <trkpt lat="51.50970100" lon="6.651519000">
        <ele>28.375000</ele>
        <time>2008-08-16T16:31:13Z</time>
      </trkpt>
      <trkpt lat="51.50963800" lon="6.650952000">
        <ele>28.350000</ele>
        <time>2008-08-16T16:31:22Z</time>
      </trkpt>
      <trkpt lat="51.50958000" lon="6.650372000">
        <ele>28.451000</ele>
        <time>2008-08-16T16:31:32Z</time>
      </trkpt>
      <trkpt lat="51.50951500" lon="6.649790000">
        <ele>29.080000</ele>
        <time>2008-08-16T16:31:42Z</time>
      </trkpt>
      <trkpt lat="51.50944500" lon="6.649201000">
        <ele>29.446000</ele>
        <time>2008-08-16T16:31:52Z</time>
      </trkpt>
      <trkpt lat="51.50936800" lon="6.648581000">
        <ele>29.544000</ele>
        <time>2008-08-16T16:32:03Z</time>
      </trkpt>
      <trkpt lat="51.50929000" lon="6.647969000">
        <ele>29.849000</ele>
        <time>2008-08-16T16:32:14Z</time>
      </trkpt>
      <trkpt lat="51.50920100" lon="6.647376000">
        <ele>29.936000</ele>
        <time>2008-08-16T16:32:24Z</time>
      </trkpt>
      <trkpt lat="51.50912100" lon="6.646755000">
        <ele>30.201000</ele>
        <time>2008-08-16T16:32:34Z</time>
      </trkpt>
      <trkpt lat="51.50902000" lon="6.646131000">
        <ele>30.214000</ele>
        <time>2008-08-16T16:32:44Z</time>
      </trkpt>
      <trkpt lat="51.50892700" lon="6.645574000">
        <ele>30.405000</ele>
        <time>2008-08-16T16:32:53Z</time>
      </trkpt>
      <trkpt lat="51.50882200" lon="6.644998000">
        <ele>30.121000</ele>
        <time>2008-08-16T16:33:02Z</time>
      </trkpt>
      <trkpt lat="51.50871200" lon="6.644424000">
        <ele>30.137000</ele>
        <time>2008-08-16T16:33:11Z</time>
      </trkpt>
      <trkpt lat="51.50858900" lon="6.643833000">
        <ele>30.118000</ele>
        <time>2008-08-16T16:33:20Z</time>
      </trkpt>
      <trkpt lat="51.50847500" lon="6.643251000">
        <ele>30.244000</ele>
        <time>2008-08-16T16:33:29Z</time>
      </trkpt>
      <trkpt lat="51.50836300" lon="6.642676000">
        <ele>29.918000</ele>
        <time>2008-08-16T16:33:38Z</time>
      </trkpt>
      <trkpt lat="51.50826300" lon="6.642109000">
        <ele>30.050000</ele>
        <time>2008-08-16T16:33:47Z</time>
      </trkpt>
      <trkpt lat="51.50817700" lon="6.641529000">
        <ele>29.976000</ele>
        <time>2008-08-16T16:33:56Z</time>
      </trkpt>
      <trkpt lat="51.50811300" lon="6.640939000">
        <ele>29.763000</ele>
        <time>2008-08-16T16:34:05Z</time>
      </trkpt>
      <trkpt lat="51.50808100" lon="6.640344000">
        <ele>29.340000</ele>
        <time>2008-08-16T16:34:14Z</time>
      </trkpt>
      <trkpt lat="51.50806500" lon="6.639754000">
        <ele>29.320000</ele>
        <time>2008-08-16T16:34:23Z</time>
      </trkpt>
      <trkpt lat="51.50805900" lon="6.639139000">
        <ele>29.150000</ele>
        <time>2008-08-16T16:34:32Z</time>
      </trkpt>
      <trkpt lat="51.50803700" lon="6.638525000">
        <ele>28.671000</ele>
        <time>2008-08-16T16:34:41Z</time>
      </trkpt>
      <trkpt lat="51.50799100" lon="6.637919000">
        <ele>28.722000</ele>
        <time>2008-08-16T16:34:50Z</time>
      </trkpt>
      <trkpt lat="51.50791400" lon="6.637302000">
        <ele>28.215000</ele>
        <time>2008-08-16T16:34:59Z</time>
      </trkpt>
      <trkpt lat="51.50778700" lon="6.636681000">
        <ele>27.845000</ele>
        <time>2008-08-16T16:35:08Z</time>
      </trkpt>
      <trkpt lat="51.50763200" lon="6.636148000">
        <ele>27.368000</ele>
        <time>2008-08-16T16:35:16Z</time>
      </trkpt>
      <trkpt lat="51.50745300" lon="6.635655000">
        <ele>26.946000</ele>
        <time>2008-08-16T16:35:24Z</time>
      </trkpt>
      <trkpt lat="51.50723700" lon="6.635141000">
        <ele>27.066000</ele>
        <time>2008-08-16T16:35:33Z</time>
      </trkpt>
      <trkpt lat="51.50700100" lon="6.634622000">
        <ele>26.574000</ele>
        <time>2008-08-16T16:35:42Z</time>
      </trkpt>
      <trkpt lat="51.50679600" lon="6.634092000">
        <ele>26.778000</ele>
        <time>2008-08-16T16:35:51Z</time>
      </trkpt>
      <trkpt lat="51.50662100" lon="6.633535000">
        <ele>26.793000</ele>
        <time>2008-08-16T16:36:00Z</time>
      </trkpt>
      <trkpt lat="51.50647100" lon="6.632975000">
        <ele>26.997000</ele>
        <time>2008-08-16T16:36:09Z</time>
      </trkpt>
      <trkpt lat="51.50636400" lon="6.632358000">
        <ele>27.075000</ele>
        <time>2008-08-16T16:36:19Z</time>
      </trkpt>
      <trkpt lat="51.50628200" lon="6.631791000">
        <ele>27.225000</ele>
        <time>2008-08-16T16:36:28Z</time>
      </trkpt>
      <trkpt lat="51.50619700" lon="6.631213000">
        <ele>27.379000</ele>
        <time>2008-08-16T16:36:37Z</time>
      </trkpt>
      <trkpt lat="51.50605900" lon="6.630678000">
        <ele>27.464000</ele>
        <time>2008-08-16T16:36:46Z</time>
      </trkpt>
      <trkpt lat="51.50589500" lon="6.630042000">
        <ele>27.906000</ele>
        <time>2008-08-16T16:36:57Z</time>
      </trkpt>
      <trkpt lat="51.50572600" lon="6.629525000">
        <ele>28.123000</ele>
        <time>2008-08-16T16:37:06Z</time>
      </trkpt>
      <trkpt lat="51.50554800" lon="6.629003000">
        <ele>28.560000</ele>
        <time>2008-08-16T16:37:15Z</time>
      </trkpt>
      <trkpt lat="51.50537600" lon="6.628440000">
        <ele>28.800000</ele>
        <time>2008-08-16T16:37:25Z</time>
      </trkpt>
      <trkpt lat="51.50519800" lon="6.627910000">
        <ele>28.885000</ele>
        <time>2008-08-16T16:37:34Z</time>
      </trkpt>
      <trkpt lat="51.50504700" lon="6.627372000">
        <ele>28.923000</ele>
        <time>2008-08-16T16:37:43Z</time>
      </trkpt>
      <trkpt lat="51.50491000" lon="6.626810000">
        <ele>28.984000</ele>
        <time>2008-08-16T16:37:52Z</time>
      </trkpt>
      <trkpt lat="51.50489300" lon="6.626746000">
        <ele>29.223000</ele>
        <time>2008-08-16T16:37:53Z</time>
      </trkpt>
      <trkpt lat="51.50476100" lon="6.626112000">
        <ele>28.849000</ele>
        <time>2008-08-16T16:38:03Z</time>
      </trkpt>
      <trkpt lat="51.50468300" lon="6.625727000">
        <ele>28.785000</ele>
        <time>2008-08-16T16:38:09Z</time>
      </trkpt>
      <trkpt lat="51.50452600" lon="6.625257000">
        <ele>28.550000</ele>
        <time>2008-08-16T16:38:17Z</time>
      </trkpt>
      <trkpt lat="51.50448600" lon="6.624924000">
        <ele>28.427000</ele>
        <time>2008-08-16T16:38:22Z</time>
      </trkpt>
      <trkpt lat="51.50431600" lon="6.624316000">
        <ele>28.242000</ele>
        <time>2008-08-16T16:38:32Z</time>
      </trkpt>
      <trkpt lat="51.50409200" lon="6.623744000">
        <ele>28.550000</ele>
        <time>2008-08-16T16:38:43Z</time>
      </trkpt>
      <trkpt lat="51.50392900" lon="6.623459000">
        <ele>28.442000</ele>
        <time>2008-08-16T16:38:49Z</time>
      </trkpt>
      <trkpt lat="51.50385900" lon="6.623321000">
        <ele>28.475000</ele>
        <time>2008-08-16T16:38:52Z</time>
      </trkpt>
      <trkpt lat="51.50356700" lon="6.623446000">
        <ele>27.579000</ele>
        <time>2008-08-16T16:39:05Z</time>
      </trkpt>
      <trkpt lat="51.50357800" lon="6.623492000">
        <ele>27.682000</ele>
        <time>2008-08-16T16:39:24Z</time>
      </trkpt>
      <trkpt lat="51.50357300" lon="6.623484000">
        <ele>26.721000</ele>
        <time>2008-08-16T16:40:06Z</time>
      </trkpt>
    </trkseg>
  </trk>
</gpx>

